<?xml version="1.0" encoding="UTF-8" standalone="no" ?>
<gpx xmlns="http://www.topografix.com/GPX/1/1" xmlns:xsi="http://www.w3.org/2001/XMLSchema-instance" xsi:schemaLocation="http://www.topografix.com/GPX/1/1 http://www.topografix.com/GPX/1/1/gpx.xsd" version="1.1" creator="VisuGPX - https://www.visugpx.com">
  <metadata>
    <name>Randonnée Lavau sur Loire</name>
    <desc><![CDATA[Randonnée du 25 septembre 2014]]></desc>
  </metadata>
  <trk>
    <name><![CDATA[25/09/2014 11:01:56]]></name>
    <trkseg>
      <trkpt lat="47.34035" lon="-1.9214">
        <ele>10</ele>
        <time>2014-09-25T09:01:56Z</time>
      </trkpt>
      <trkpt lat="47.34046" lon="-1.92151">
        <ele>9</ele>
        <time>2014-09-25T09:02:17Z</time>
      </trkpt>
      <trkpt lat="47.3406" lon="-1.92157">
        <ele>8</ele>
        <time>2014-09-25T09:02:28Z</time>
      </trkpt>
      <trkpt lat="47.34074" lon="-1.92162">
        <ele>7</ele>
        <time>2014-09-25T09:02:40Z</time>
      </trkpt>
      <trkpt lat="47.34087" lon="-1.92169">
        <ele>8</ele>
        <time>2014-09-25T09:02:55Z</time>
      </trkpt>
      <trkpt lat="47.34101" lon="-1.9217">
        <ele>8</ele>
        <time>2014-09-25T09:03:05Z</time>
      </trkpt>
      <trkpt lat="47.34113" lon="-1.92158">
        <ele>7</ele>
        <time>2014-09-25T09:03:16Z</time>
      </trkpt>
      <trkpt lat="47.34126" lon="-1.92151">
        <ele>8</ele>
        <time>2014-09-25T09:03:25Z</time>
      </trkpt>
      <trkpt lat="47.34141" lon="-1.92148">
        <ele>7</ele>
        <time>2014-09-25T09:03:38Z</time>
      </trkpt>
      <trkpt lat="47.34153" lon="-1.92136">
        <ele>8</ele>
        <time>2014-09-25T09:03:53Z</time>
      </trkpt>
      <trkpt lat="47.34163" lon="-1.92123">
        <ele>8</ele>
        <time>2014-09-25T09:04:06Z</time>
      </trkpt>
      <trkpt lat="47.34168" lon="-1.92104">
        <ele>7</ele>
        <time>2014-09-25T09:04:18Z</time>
      </trkpt>
      <trkpt lat="47.34177" lon="-1.92087">
        <ele>9</ele>
        <time>2014-09-25T09:04:26Z</time>
      </trkpt>
      <trkpt lat="47.34181" lon="-1.92067">
        <ele>12</ele>
        <time>2014-09-25T09:04:37Z</time>
      </trkpt>
      <trkpt lat="47.34187" lon="-1.92047">
        <ele>10</ele>
        <time>2014-09-25T09:04:49Z</time>
      </trkpt>
      <trkpt lat="47.34199" lon="-1.9206">
        <ele>7</ele>
        <time>2014-09-25T09:05:06Z</time>
      </trkpt>
      <trkpt lat="47.34212" lon="-1.9207">
        <ele>8</ele>
        <time>2014-09-25T09:05:16Z</time>
      </trkpt>
      <trkpt lat="47.34224" lon="-1.92083">
        <ele>8</ele>
        <time>2014-09-25T09:05:26Z</time>
      </trkpt>
      <trkpt lat="47.34236" lon="-1.92094">
        <ele>7</ele>
        <time>2014-09-25T09:05:36Z</time>
      </trkpt>
      <trkpt lat="47.34246" lon="-1.92109">
        <ele>6</ele>
        <time>2014-09-25T09:05:47Z</time>
      </trkpt>
      <trkpt lat="47.34255" lon="-1.92125">
        <ele>6</ele>
        <time>2014-09-25T09:05:58Z</time>
      </trkpt>
      <trkpt lat="47.34263" lon="-1.92142">
        <ele>7</ele>
        <time>2014-09-25T09:06:11Z</time>
      </trkpt>
      <trkpt lat="47.34274" lon="-1.92156">
        <ele>8</ele>
        <time>2014-09-25T09:06:18Z</time>
      </trkpt>
      <trkpt lat="47.3428" lon="-1.92176">
        <ele>2</ele>
        <time>2014-09-25T09:06:30Z</time>
      </trkpt>
      <trkpt lat="47.34283" lon="-1.92196">
        <ele>-3</ele>
        <time>2014-09-25T09:06:41Z</time>
      </trkpt>
      <trkpt lat="47.34289" lon="-1.92214">
        <ele>-2</ele>
        <time>2014-09-25T09:06:52Z</time>
      </trkpt>
      <trkpt lat="47.34295" lon="-1.92231">
        <ele>-2</ele>
        <time>2014-09-25T09:07:03Z</time>
      </trkpt>
      <trkpt lat="47.34303" lon="-1.92249">
        <ele>4.9</ele>
        <time>2014-09-25T09:07:13Z</time>
      </trkpt>
      <trkpt lat="47.34311" lon="-1.92266">
        <ele>-3</ele>
        <time>2014-09-25T09:07:27Z</time>
      </trkpt>
      <trkpt lat="47.34316" lon="-1.92287">
        <ele>1</ele>
        <time>2014-09-25T09:07:35Z</time>
      </trkpt>
      <trkpt lat="47.34329" lon="-1.92294">
        <ele>4</ele>
        <time>2014-09-25T09:07:48Z</time>
      </trkpt>
      <trkpt lat="47.34342" lon="-1.92302">
        <ele>5</ele>
        <time>2014-09-25T09:07:58Z</time>
      </trkpt>
      <trkpt lat="47.34353" lon="-1.92316">
        <ele>4</ele>
        <time>2014-09-25T09:08:10Z</time>
      </trkpt>
      <trkpt lat="47.34366" lon="-1.92327">
        <ele>5</ele>
        <time>2014-09-25T09:08:19Z</time>
      </trkpt>
      <trkpt lat="47.34375" lon="-1.92342">
        <ele>3</ele>
        <time>2014-09-25T09:08:30Z</time>
      </trkpt>
      <trkpt lat="47.34385" lon="-1.92358">
        <ele>4</ele>
        <time>2014-09-25T09:08:42Z</time>
      </trkpt>
      <trkpt lat="47.34395" lon="-1.92372">
        <ele>4</ele>
        <time>2014-09-25T09:08:54Z</time>
      </trkpt>
      <trkpt lat="47.34404" lon="-1.92387">
        <ele>5</ele>
        <time>2014-09-25T09:09:04Z</time>
      </trkpt>
      <trkpt lat="47.34412" lon="-1.92405">
        <ele>5</ele>
        <time>2014-09-25T09:09:16Z</time>
      </trkpt>
      <trkpt lat="47.34421" lon="-1.92421">
        <ele>6</ele>
        <time>2014-09-25T09:09:27Z</time>
      </trkpt>
      <trkpt lat="47.34431" lon="-1.92437">
        <ele>4</ele>
        <time>2014-09-25T09:09:38Z</time>
      </trkpt>
      <trkpt lat="47.34439" lon="-1.92452">
        <ele>3</ele>
        <time>2014-09-25T09:09:49Z</time>
      </trkpt>
      <trkpt lat="47.34449" lon="-1.92469">
        <ele>5</ele>
        <time>2014-09-25T09:10:00Z</time>
      </trkpt>
      <trkpt lat="47.34459" lon="-1.92484">
        <ele>3</ele>
        <time>2014-09-25T09:10:13Z</time>
      </trkpt>
      <trkpt lat="47.34462" lon="-1.92504">
        <ele>4</ele>
        <time>2014-09-25T09:10:27Z</time>
      </trkpt>
      <trkpt lat="47.34451" lon="-1.92516">
        <ele>2</ele>
        <time>2014-09-25T09:10:37Z</time>
      </trkpt>
      <trkpt lat="47.34439" lon="-1.92528">
        <ele>4</ele>
        <time>2014-09-25T09:10:50Z</time>
      </trkpt>
      <trkpt lat="47.34426" lon="-1.92537">
        <ele>4</ele>
        <time>2014-09-25T09:11:03Z</time>
      </trkpt>
      <trkpt lat="47.34416" lon="-1.9255">
        <ele>5</ele>
        <time>2014-09-25T09:11:10Z</time>
      </trkpt>
      <trkpt lat="47.34402" lon="-1.9256">
        <ele>6</ele>
        <time>2014-09-25T09:11:20Z</time>
      </trkpt>
      <trkpt lat="47.34388" lon="-1.92566">
        <ele>6</ele>
        <time>2014-09-25T09:11:29Z</time>
      </trkpt>
      <trkpt lat="47.34375" lon="-1.92569">
        <ele>5</ele>
        <time>2014-09-25T09:11:45Z</time>
      </trkpt>
      <trkpt lat="47.34361" lon="-1.92572">
        <ele>6</ele>
        <time>2014-09-25T09:12:00Z</time>
      </trkpt>
      <trkpt lat="47.34347" lon="-1.9257">
        <ele>6</ele>
        <time>2014-09-25T09:12:09Z</time>
      </trkpt>
      <trkpt lat="47.34334" lon="-1.92571">
        <ele>6</ele>
        <time>2014-09-25T09:12:19Z</time>
      </trkpt>
      <trkpt lat="47.3432" lon="-1.92575">
        <ele>5</ele>
        <time>2014-09-25T09:12:34Z</time>
      </trkpt>
      <trkpt lat="47.34306" lon="-1.92574">
        <ele>7</ele>
        <time>2014-09-25T09:12:42Z</time>
      </trkpt>
      <trkpt lat="47.34292" lon="-1.92569">
        <ele>7</ele>
        <time>2014-09-25T09:12:51Z</time>
      </trkpt>
      <trkpt lat="47.34278" lon="-1.92566">
        <ele>8</ele>
        <time>2014-09-25T09:13:04Z</time>
      </trkpt>
      <trkpt lat="47.34271" lon="-1.92583">
        <ele>8</ele>
        <time>2014-09-25T09:13:13Z</time>
      </trkpt>
      <trkpt lat="47.34263" lon="-1.92601">
        <ele>3</ele>
        <time>2014-09-25T09:13:25Z</time>
      </trkpt>
      <trkpt lat="47.34255" lon="-1.92619">
        <ele>1</ele>
        <time>2014-09-25T09:13:34Z</time>
      </trkpt>
      <trkpt lat="47.3425" lon="-1.92638">
        <ele>2</ele>
        <time>2014-09-25T09:13:41Z</time>
      </trkpt>
      <trkpt lat="47.34245" lon="-1.92657">
        <ele>3</ele>
        <time>2014-09-25T09:13:52Z</time>
      </trkpt>
      <trkpt lat="47.34242" lon="-1.92678">
        <ele>3</ele>
        <time>2014-09-25T09:14:02Z</time>
      </trkpt>
      <trkpt lat="47.34236" lon="-1.92698">
        <ele>6</ele>
        <time>2014-09-25T09:14:11Z</time>
      </trkpt>
      <trkpt lat="47.3423" lon="-1.92716">
        <ele>3</ele>
        <time>2014-09-25T09:14:22Z</time>
      </trkpt>
      <trkpt lat="47.34224" lon="-1.92734">
        <ele>1.9</ele>
        <time>2014-09-25T09:14:35Z</time>
      </trkpt>
      <trkpt lat="47.34218" lon="-1.92753">
        <ele>-2</ele>
        <time>2014-09-25T09:14:44Z</time>
      </trkpt>
      <trkpt lat="47.34216" lon="-1.92774">
        <ele>-1</ele>
        <time>2014-09-25T09:14:54Z</time>
      </trkpt>
      <trkpt lat="47.34209" lon="-1.92793">
        <ele>-1</ele>
        <time>2014-09-25T09:15:06Z</time>
      </trkpt>
      <trkpt lat="47.34204" lon="-1.92812">
        <ele>1</ele>
        <time>2014-09-25T09:15:18Z</time>
      </trkpt>
      <trkpt lat="47.34198" lon="-1.92831">
        <ele>1.9</ele>
        <time>2014-09-25T09:15:32Z</time>
      </trkpt>
      <trkpt lat="47.34194" lon="-1.92851">
        <ele>-1</ele>
        <time>2014-09-25T09:15:43Z</time>
      </trkpt>
      <trkpt lat="47.34188" lon="-1.9287">
        <ele>2</ele>
        <time>2014-09-25T09:15:54Z</time>
      </trkpt>
      <trkpt lat="47.34183" lon="-1.92888">
        <ele>3</ele>
        <time>2014-09-25T09:16:06Z</time>
      </trkpt>
      <trkpt lat="47.34177" lon="-1.92907">
        <ele>3</ele>
        <time>2014-09-25T09:16:17Z</time>
      </trkpt>
      <trkpt lat="47.34173" lon="-1.92927">
        <ele>4</ele>
        <time>2014-09-25T09:16:28Z</time>
      </trkpt>
      <trkpt lat="47.34169" lon="-1.92947">
        <ele>4</ele>
        <time>2014-09-25T09:16:41Z</time>
      </trkpt>
      <trkpt lat="47.34162" lon="-1.92966">
        <ele>6</ele>
        <time>2014-09-25T09:16:54Z</time>
      </trkpt>
      <trkpt lat="47.34158" lon="-1.92985">
        <ele>5</ele>
        <time>2014-09-25T09:17:05Z</time>
      </trkpt>
      <trkpt lat="47.34153" lon="-1.93004">
        <ele>4</ele>
        <time>2014-09-25T09:17:14Z</time>
      </trkpt>
      <trkpt lat="47.34148" lon="-1.93024">
        <ele>4</ele>
        <time>2014-09-25T09:17:25Z</time>
      </trkpt>
      <trkpt lat="47.34143" lon="-1.93044">
        <ele>6</ele>
        <time>2014-09-25T09:17:37Z</time>
      </trkpt>
      <trkpt lat="47.34141" lon="-1.93066">
        <ele>6</ele>
        <time>2014-09-25T09:17:49Z</time>
      </trkpt>
      <trkpt lat="47.34135" lon="-1.93085">
        <ele>6</ele>
        <time>2014-09-25T09:17:56Z</time>
      </trkpt>
      <trkpt lat="47.34127" lon="-1.93102">
        <ele>1</ele>
        <time>2014-09-25T09:18:05Z</time>
      </trkpt>
      <trkpt lat="47.3412" lon="-1.9312">
        <ele>2</ele>
        <time>2014-09-25T09:18:20Z</time>
      </trkpt>
      <trkpt lat="47.34115" lon="-1.93139">
        <ele>5</ele>
        <time>2014-09-25T09:18:38Z</time>
      </trkpt>
      <trkpt lat="47.34113" lon="-1.93159">
        <ele>6</ele>
        <time>2014-09-25T09:18:50Z</time>
      </trkpt>
      <trkpt lat="47.34108" lon="-1.93178">
        <ele>6</ele>
        <time>2014-09-25T09:19:03Z</time>
      </trkpt>
      <trkpt lat="47.34103" lon="-1.93197">
        <ele>8</ele>
        <time>2014-09-25T09:19:13Z</time>
      </trkpt>
      <trkpt lat="47.34096" lon="-1.93215">
        <ele>6</ele>
        <time>2014-09-25T09:19:26Z</time>
      </trkpt>
      <trkpt lat="47.34091" lon="-1.93235">
        <ele>4</ele>
        <time>2014-09-25T09:19:38Z</time>
      </trkpt>
      <trkpt lat="47.34085" lon="-1.93255">
        <ele>5</ele>
        <time>2014-09-25T09:19:48Z</time>
      </trkpt>
      <trkpt lat="47.34079" lon="-1.93275">
        <ele>4</ele>
        <time>2014-09-25T09:20:01Z</time>
      </trkpt>
      <trkpt lat="47.34075" lon="-1.93295">
        <ele>3</ele>
        <time>2014-09-25T09:20:11Z</time>
      </trkpt>
      <trkpt lat="47.3407" lon="-1.93315">
        <ele>2</ele>
        <time>2014-09-25T09:20:21Z</time>
      </trkpt>
      <trkpt lat="47.34064" lon="-1.93335">
        <ele>3</ele>
        <time>2014-09-25T09:20:32Z</time>
      </trkpt>
      <trkpt lat="47.34059" lon="-1.93353">
        <ele>3</ele>
        <time>2014-09-25T09:20:42Z</time>
      </trkpt>
      <trkpt lat="47.34054" lon="-1.93374">
        <ele>2</ele>
        <time>2014-09-25T09:20:52Z</time>
      </trkpt>
      <trkpt lat="47.34047" lon="-1.93392">
        <ele>2</ele>
        <time>2014-09-25T09:21:04Z</time>
      </trkpt>
      <trkpt lat="47.34041" lon="-1.9341">
        <ele>4</ele>
        <time>2014-09-25T09:21:12Z</time>
      </trkpt>
      <trkpt lat="47.34037" lon="-1.9343">
        <ele>3</ele>
        <time>2014-09-25T09:21:27Z</time>
      </trkpt>
      <trkpt lat="47.34033" lon="-1.93449">
        <ele>4</ele>
        <time>2014-09-25T09:21:42Z</time>
      </trkpt>
      <trkpt lat="47.34028" lon="-1.93468">
        <ele>7</ele>
        <time>2014-09-25T09:21:52Z</time>
      </trkpt>
      <trkpt lat="47.34022" lon="-1.93488">
        <ele>4</ele>
        <time>2014-09-25T09:22:02Z</time>
      </trkpt>
      <trkpt lat="47.34017" lon="-1.93507">
        <ele>4</ele>
        <time>2014-09-25T09:22:11Z</time>
      </trkpt>
      <trkpt lat="47.34011" lon="-1.93526">
        <ele>3</ele>
        <time>2014-09-25T09:22:23Z</time>
      </trkpt>
      <trkpt lat="47.34006" lon="-1.93546">
        <ele>7</ele>
        <time>2014-09-25T09:22:34Z</time>
      </trkpt>
      <trkpt lat="47.34001" lon="-1.93565">
        <ele>3</ele>
        <time>2014-09-25T09:22:46Z</time>
      </trkpt>
      <trkpt lat="47.33996" lon="-1.93585">
        <ele>3</ele>
        <time>2014-09-25T09:22:57Z</time>
      </trkpt>
      <trkpt lat="47.33992" lon="-1.93605">
        <ele>4</ele>
        <time>2014-09-25T09:23:08Z</time>
      </trkpt>
      <trkpt lat="47.33987" lon="-1.93624">
        <ele>5</ele>
        <time>2014-09-25T09:23:19Z</time>
      </trkpt>
      <trkpt lat="47.33983" lon="-1.93644">
        <ele>3</ele>
        <time>2014-09-25T09:23:28Z</time>
      </trkpt>
      <trkpt lat="47.33979" lon="-1.93665">
        <ele>2</ele>
        <time>2014-09-25T09:23:41Z</time>
      </trkpt>
      <trkpt lat="47.33973" lon="-1.93683">
        <ele>4</ele>
        <time>2014-09-25T09:23:51Z</time>
      </trkpt>
      <trkpt lat="47.33966" lon="-1.937">
        <ele>2</ele>
        <time>2014-09-25T09:24:02Z</time>
      </trkpt>
      <trkpt lat="47.33961" lon="-1.9372">
        <ele>3</ele>
        <time>2014-09-25T09:24:16Z</time>
      </trkpt>
      <trkpt lat="47.33953" lon="-1.93736">
        <ele>3</ele>
        <time>2014-09-25T09:24:25Z</time>
      </trkpt>
      <trkpt lat="47.3395" lon="-1.93756">
        <ele>2</ele>
        <time>2014-09-25T09:24:36Z</time>
      </trkpt>
      <trkpt lat="47.33945" lon="-1.93775">
        <ele>4</ele>
        <time>2014-09-25T09:24:46Z</time>
      </trkpt>
      <trkpt lat="47.33942" lon="-1.93795">
        <ele>5</ele>
        <time>2014-09-25T09:24:53Z</time>
      </trkpt>
      <trkpt lat="47.33936" lon="-1.93814">
        <ele>7</ele>
        <time>2014-09-25T09:25:05Z</time>
      </trkpt>
      <trkpt lat="47.33931" lon="-1.93832">
        <ele>6</ele>
        <time>2014-09-25T09:25:22Z</time>
      </trkpt>
      <trkpt lat="47.33925" lon="-1.93852">
        <ele>9</ele>
        <time>2014-09-25T09:25:30Z</time>
      </trkpt>
      <trkpt lat="47.33922" lon="-1.93872">
        <ele>10</ele>
        <time>2014-09-25T09:25:36Z</time>
      </trkpt>
      <trkpt lat="47.33916" lon="-1.93889">
        <ele>8</ele>
        <time>2014-09-25T09:25:54Z</time>
      </trkpt>
      <trkpt lat="47.33911" lon="-1.93911">
        <ele>8</ele>
        <time>2014-09-25T09:26:02Z</time>
      </trkpt>
      <trkpt lat="47.33906" lon="-1.9393">
        <ele>8</ele>
        <time>2014-09-25T09:26:13Z</time>
      </trkpt>
      <trkpt lat="47.33898" lon="-1.93947">
        <ele>5</ele>
        <time>2014-09-25T09:26:23Z</time>
      </trkpt>
      <trkpt lat="47.33893" lon="-1.93966">
        <ele>4</ele>
        <time>2014-09-25T09:26:37Z</time>
      </trkpt>
      <trkpt lat="47.33887" lon="-1.93987">
        <ele>6</ele>
        <time>2014-09-25T09:26:47Z</time>
      </trkpt>
      <trkpt lat="47.33883" lon="-1.94006">
        <ele>7</ele>
        <time>2014-09-25T09:26:59Z</time>
      </trkpt>
      <trkpt lat="47.33878" lon="-1.94025">
        <ele>7</ele>
        <time>2014-09-25T09:27:08Z</time>
      </trkpt>
      <trkpt lat="47.33871" lon="-1.94043">
        <ele>9</ele>
        <time>2014-09-25T09:27:19Z</time>
      </trkpt>
      <trkpt lat="47.33867" lon="-1.94063">
        <ele>4</ele>
        <time>2014-09-25T09:27:35Z</time>
      </trkpt>
      <trkpt lat="47.33862" lon="-1.94082">
        <ele>5</ele>
        <time>2014-09-25T09:27:45Z</time>
      </trkpt>
      <trkpt lat="47.33858" lon="-1.94104">
        <ele>8</ele>
        <time>2014-09-25T09:27:56Z</time>
      </trkpt>
      <trkpt lat="47.33854" lon="-1.94124">
        <ele>7</ele>
        <time>2014-09-25T09:28:08Z</time>
      </trkpt>
      <trkpt lat="47.33849" lon="-1.94143">
        <ele>8</ele>
        <time>2014-09-25T09:28:19Z</time>
      </trkpt>
      <trkpt lat="47.33843" lon="-1.94161">
        <ele>7</ele>
        <time>2014-09-25T09:28:30Z</time>
      </trkpt>
      <trkpt lat="47.33837" lon="-1.94181">
        <ele>7</ele>
        <time>2014-09-25T09:28:41Z</time>
      </trkpt>
      <trkpt lat="47.33829" lon="-1.94201">
        <ele>9</ele>
        <time>2014-09-25T09:28:57Z</time>
      </trkpt>
      <trkpt lat="47.33826" lon="-1.9422">
        <ele>9</ele>
        <time>2014-09-25T09:29:06Z</time>
      </trkpt>
      <trkpt lat="47.3382" lon="-1.94239">
        <ele>9</ele>
        <time>2014-09-25T09:29:17Z</time>
      </trkpt>
      <trkpt lat="47.33815" lon="-1.94258">
        <ele>7</ele>
        <time>2014-09-25T09:29:29Z</time>
      </trkpt>
      <trkpt lat="47.33811" lon="-1.94278">
        <ele>6</ele>
        <time>2014-09-25T09:29:42Z</time>
      </trkpt>
      <trkpt lat="47.33806" lon="-1.94297">
        <ele>7</ele>
        <time>2014-09-25T09:29:53Z</time>
      </trkpt>
      <trkpt lat="47.33801" lon="-1.94315">
        <ele>7</ele>
        <time>2014-09-25T09:30:04Z</time>
      </trkpt>
      <trkpt lat="47.33795" lon="-1.94334">
        <ele>8</ele>
        <time>2014-09-25T09:30:20Z</time>
      </trkpt>
      <trkpt lat="47.3379" lon="-1.94354">
        <ele>10</ele>
        <time>2014-09-25T09:30:48Z</time>
      </trkpt>
      <trkpt lat="47.33785" lon="-1.94373">
        <ele>3</ele>
        <time>2014-09-25T09:31:10Z</time>
      </trkpt>
      <trkpt lat="47.3377" lon="-1.94366">
        <ele>4</ele>
        <time>2014-09-25T09:31:34Z</time>
      </trkpt>
      <trkpt lat="47.33756" lon="-1.94362">
        <ele>6</ele>
        <time>2014-09-25T09:31:45Z</time>
      </trkpt>
      <trkpt lat="47.33742" lon="-1.94356">
        <ele>4</ele>
        <time>2014-09-25T09:31:56Z</time>
      </trkpt>
      <trkpt lat="47.33729" lon="-1.94349">
        <ele>5</ele>
        <time>2014-09-25T09:32:12Z</time>
      </trkpt>
      <trkpt lat="47.33716" lon="-1.9434">
        <ele>4</ele>
        <time>2014-09-25T09:32:23Z</time>
      </trkpt>
      <trkpt lat="47.33704" lon="-1.94348">
        <ele>5</ele>
        <time>2014-09-25T09:32:40Z</time>
      </trkpt>
      <trkpt lat="47.33698" lon="-1.94368">
        <ele>4</ele>
        <time>2014-09-25T09:32:51Z</time>
      </trkpt>
      <trkpt lat="47.33691" lon="-1.94386">
        <ele>5</ele>
        <time>2014-09-25T09:32:59Z</time>
      </trkpt>
      <trkpt lat="47.33683" lon="-1.94401">
        <ele>5</ele>
        <time>2014-09-25T09:33:13Z</time>
      </trkpt>
      <trkpt lat="47.33675" lon="-1.9442">
        <ele>6</ele>
        <time>2014-09-25T09:33:23Z</time>
      </trkpt>
      <trkpt lat="47.33668" lon="-1.94437">
        <ele>5</ele>
        <time>2014-09-25T09:33:34Z</time>
      </trkpt>
      <trkpt lat="47.3366" lon="-1.94453">
        <ele>5</ele>
        <time>2014-09-25T09:33:46Z</time>
      </trkpt>
      <trkpt lat="47.33652" lon="-1.94471">
        <ele>7</ele>
        <time>2014-09-25T09:33:54Z</time>
      </trkpt>
      <trkpt lat="47.33644" lon="-1.94489">
        <ele>5</ele>
        <time>2014-09-25T09:34:03Z</time>
      </trkpt>
      <trkpt lat="47.33635" lon="-1.94503">
        <ele>7</ele>
        <time>2014-09-25T09:34:15Z</time>
      </trkpt>
      <trkpt lat="47.33625" lon="-1.94518">
        <ele>9</ele>
        <time>2014-09-25T09:34:29Z</time>
      </trkpt>
      <trkpt lat="47.33615" lon="-1.94532">
        <ele>7</ele>
        <time>2014-09-25T09:34:40Z</time>
      </trkpt>
      <trkpt lat="47.33603" lon="-1.94544">
        <ele>5</ele>
        <time>2014-09-25T09:34:53Z</time>
      </trkpt>
      <trkpt lat="47.33591" lon="-1.94556">
        <ele>5</ele>
        <time>2014-09-25T09:35:04Z</time>
      </trkpt>
      <trkpt lat="47.33585" lon="-1.94575">
        <ele>5</ele>
        <time>2014-09-25T09:35:12Z</time>
      </trkpt>
      <trkpt lat="47.33582" lon="-1.94596">
        <ele>3</ele>
        <time>2014-09-25T09:35:24Z</time>
      </trkpt>
      <trkpt lat="47.3358" lon="-1.94617">
        <ele>5</ele>
        <time>2014-09-25T09:35:35Z</time>
      </trkpt>
      <trkpt lat="47.33577" lon="-1.94638">
        <ele>6</ele>
        <time>2014-09-25T09:35:44Z</time>
      </trkpt>
      <trkpt lat="47.33573" lon="-1.94659">
        <ele>8</ele>
        <time>2014-09-25T09:35:54Z</time>
      </trkpt>
      <trkpt lat="47.33571" lon="-1.94679">
        <ele>9</ele>
        <time>2014-09-25T09:36:07Z</time>
      </trkpt>
      <trkpt lat="47.33567" lon="-1.947">
        <ele>7</ele>
        <time>2014-09-25T09:36:17Z</time>
      </trkpt>
      <trkpt lat="47.33562" lon="-1.94718">
        <ele>7</ele>
        <time>2014-09-25T09:36:28Z</time>
      </trkpt>
      <trkpt lat="47.33558" lon="-1.94739">
        <ele>6</ele>
        <time>2014-09-25T09:36:39Z</time>
      </trkpt>
      <trkpt lat="47.33553" lon="-1.94759">
        <ele>7</ele>
        <time>2014-09-25T09:36:51Z</time>
      </trkpt>
      <trkpt lat="47.33546" lon="-1.94777">
        <ele>8</ele>
        <time>2014-09-25T09:37:03Z</time>
      </trkpt>
      <trkpt lat="47.33542" lon="-1.94796">
        <ele>9</ele>
        <time>2014-09-25T09:37:15Z</time>
      </trkpt>
      <trkpt lat="47.33542" lon="-1.94818">
        <ele>9</ele>
        <time>2014-09-25T09:37:25Z</time>
      </trkpt>
      <trkpt lat="47.33544" lon="-1.9484">
        <ele>7</ele>
        <time>2014-09-25T09:37:38Z</time>
      </trkpt>
      <trkpt lat="47.33551" lon="-1.94857">
        <ele>11</ele>
        <time>2014-09-25T09:37:46Z</time>
      </trkpt>
      <trkpt lat="47.33562" lon="-1.94873">
        <ele>11</ele>
        <time>2014-09-25T09:37:54Z</time>
      </trkpt>
      <trkpt lat="47.33572" lon="-1.94887">
        <ele>11</ele>
        <time>2014-09-25T09:38:06Z</time>
      </trkpt>
      <trkpt lat="47.33581" lon="-1.94904">
        <ele>12</ele>
        <time>2014-09-25T09:38:16Z</time>
      </trkpt>
      <trkpt lat="47.33582" lon="-1.94925">
        <ele>13</ele>
        <time>2014-09-25T09:38:28Z</time>
      </trkpt>
      <trkpt lat="47.33591" lon="-1.94941">
        <ele>9</ele>
        <time>2014-09-25T09:38:40Z</time>
      </trkpt>
      <trkpt lat="47.33596" lon="-1.9496">
        <ele>11</ele>
        <time>2014-09-25T09:38:49Z</time>
      </trkpt>
      <trkpt lat="47.33609" lon="-1.94969">
        <ele>7</ele>
        <time>2014-09-25T09:38:59Z</time>
      </trkpt>
      <trkpt lat="47.33615" lon="-1.94988">
        <ele>8</ele>
        <time>2014-09-25T09:39:09Z</time>
      </trkpt>
      <trkpt lat="47.33617" lon="-1.95008">
        <ele>7</ele>
        <time>2014-09-25T09:39:20Z</time>
      </trkpt>
      <trkpt lat="47.33626" lon="-1.95025">
        <ele>7</ele>
        <time>2014-09-25T09:39:34Z</time>
      </trkpt>
      <trkpt lat="47.33636" lon="-1.9504">
        <ele>6</ele>
        <time>2014-09-25T09:39:45Z</time>
      </trkpt>
      <trkpt lat="47.33644" lon="-1.95057">
        <ele>8</ele>
        <time>2014-09-25T09:39:54Z</time>
      </trkpt>
      <trkpt lat="47.33652" lon="-1.95075">
        <ele>11</ele>
        <time>2014-09-25T09:40:03Z</time>
      </trkpt>
      <trkpt lat="47.3366" lon="-1.95092">
        <ele>11</ele>
        <time>2014-09-25T09:40:13Z</time>
      </trkpt>
      <trkpt lat="47.33659" lon="-1.95112">
        <ele>12</ele>
        <time>2014-09-25T09:40:24Z</time>
      </trkpt>
      <trkpt lat="47.33658" lon="-1.95133">
        <ele>11</ele>
        <time>2014-09-25T09:40:35Z</time>
      </trkpt>
      <trkpt lat="47.33656" lon="-1.95154">
        <ele>13</ele>
        <time>2014-09-25T09:40:47Z</time>
      </trkpt>
      <trkpt lat="47.33661" lon="-1.95178">
        <ele>14</ele>
        <time>2014-09-25T09:41:00Z</time>
      </trkpt>
      <trkpt lat="47.33662" lon="-1.95199">
        <ele>18</ele>
        <time>2014-09-25T09:41:16Z</time>
      </trkpt>
      <trkpt lat="47.33659" lon="-1.95219">
        <ele>15</ele>
        <time>2014-09-25T09:41:26Z</time>
      </trkpt>
      <trkpt lat="47.33662" lon="-1.95241">
        <ele>11</ele>
        <time>2014-09-25T09:41:42Z</time>
      </trkpt>
      <trkpt lat="47.33662" lon="-1.95262">
        <ele>11</ele>
        <time>2014-09-25T09:41:51Z</time>
      </trkpt>
      <trkpt lat="47.33663" lon="-1.95282">
        <ele>12</ele>
        <time>2014-09-25T09:42:01Z</time>
      </trkpt>
      <trkpt lat="47.33658" lon="-1.95302">
        <ele>10</ele>
        <time>2014-09-25T09:42:11Z</time>
      </trkpt>
      <trkpt lat="47.33658" lon="-1.95324">
        <ele>6</ele>
        <time>2014-09-25T09:42:21Z</time>
      </trkpt>
      <trkpt lat="47.33662" lon="-1.95344">
        <ele>6</ele>
        <time>2014-09-25T09:42:32Z</time>
      </trkpt>
      <trkpt lat="47.33663" lon="-1.95365">
        <ele>6</ele>
        <time>2014-09-25T09:42:43Z</time>
      </trkpt>
      <trkpt lat="47.33659" lon="-1.95385">
        <ele>6</ele>
        <time>2014-09-25T09:42:54Z</time>
      </trkpt>
      <trkpt lat="47.33647" lon="-1.95396">
        <ele>6</ele>
        <time>2014-09-25T09:43:05Z</time>
      </trkpt>
      <trkpt lat="47.33639" lon="-1.95415">
        <ele>5</ele>
        <time>2014-09-25T09:43:15Z</time>
      </trkpt>
      <trkpt lat="47.33637" lon="-1.95434">
        <ele>7</ele>
        <time>2014-09-25T09:43:22Z</time>
      </trkpt>
      <trkpt lat="47.33633" lon="-1.95456">
        <ele>7</ele>
        <time>2014-09-25T09:43:31Z</time>
      </trkpt>
      <trkpt lat="47.33632" lon="-1.95476">
        <ele>8</ele>
        <time>2014-09-25T09:43:43Z</time>
      </trkpt>
      <trkpt lat="47.33631" lon="-1.95497">
        <ele>7</ele>
        <time>2014-09-25T09:43:58Z</time>
      </trkpt>
      <trkpt lat="47.33633" lon="-1.95517">
        <ele>2</ele>
        <time>2014-09-25T09:44:09Z</time>
      </trkpt>
      <trkpt lat="47.33636" lon="-1.95538">
        <ele>3</ele>
        <time>2014-09-25T09:44:22Z</time>
      </trkpt>
      <trkpt lat="47.33639" lon="-1.95558">
        <ele>2</ele>
        <time>2014-09-25T09:44:35Z</time>
      </trkpt>
      <trkpt lat="47.33639" lon="-1.95579">
        <ele>1</ele>
        <time>2014-09-25T09:44:46Z</time>
      </trkpt>
      <trkpt lat="47.33638" lon="-1.95601">
        <ele>4</ele>
        <time>2014-09-25T09:44:59Z</time>
      </trkpt>
      <trkpt lat="47.33636" lon="-1.95622">
        <ele>6</ele>
        <time>2014-09-25T09:45:05Z</time>
      </trkpt>
      <trkpt lat="47.33641" lon="-1.95641">
        <ele>8</ele>
        <time>2014-09-25T09:45:14Z</time>
      </trkpt>
      <trkpt lat="47.33642" lon="-1.95661">
        <ele>11</ele>
        <time>2014-09-25T09:45:24Z</time>
      </trkpt>
      <trkpt lat="47.33647" lon="-1.95682">
        <ele>13</ele>
        <time>2014-09-25T09:45:36Z</time>
      </trkpt>
      <trkpt lat="47.33651" lon="-1.95701">
        <ele>14</ele>
        <time>2014-09-25T09:45:46Z</time>
      </trkpt>
      <trkpt lat="47.33654" lon="-1.95721">
        <ele>14</ele>
        <time>2014-09-25T09:45:56Z</time>
      </trkpt>
      <trkpt lat="47.33654" lon="-1.9574">
        <ele>14</ele>
        <time>2014-09-25T09:46:07Z</time>
      </trkpt>
      <trkpt lat="47.33656" lon="-1.95761">
        <ele>12</ele>
        <time>2014-09-25T09:46:21Z</time>
      </trkpt>
      <trkpt lat="47.33661" lon="-1.9578">
        <ele>17</ele>
        <time>2014-09-25T09:46:29Z</time>
      </trkpt>
      <trkpt lat="47.33668" lon="-1.95799">
        <ele>13</ele>
        <time>2014-09-25T09:46:46Z</time>
      </trkpt>
      <trkpt lat="47.33671" lon="-1.9582">
        <ele>12</ele>
        <time>2014-09-25T09:46:56Z</time>
      </trkpt>
      <trkpt lat="47.33675" lon="-1.9584">
        <ele>15</ele>
        <time>2014-09-25T09:47:07Z</time>
      </trkpt>
      <trkpt lat="47.33682" lon="-1.95859">
        <ele>15</ele>
        <time>2014-09-25T09:47:13Z</time>
      </trkpt>
      <trkpt lat="47.33688" lon="-1.95888">
        <ele>19</ele>
        <time>2014-09-25T09:47:18Z</time>
      </trkpt>
      <trkpt lat="47.33693" lon="-1.95907">
        <ele>20</ele>
        <time>2014-09-25T09:47:43Z</time>
      </trkpt>
      <trkpt lat="47.33697" lon="-1.95928">
        <ele>18</ele>
        <time>2014-09-25T09:47:52Z</time>
      </trkpt>
      <trkpt lat="47.33701" lon="-1.95948">
        <ele>19</ele>
        <time>2014-09-25T09:48:05Z</time>
      </trkpt>
      <trkpt lat="47.33705" lon="-1.95969">
        <ele>16</ele>
        <time>2014-09-25T09:48:16Z</time>
      </trkpt>
      <trkpt lat="47.33708" lon="-1.95989">
        <ele>16</ele>
        <time>2014-09-25T09:48:29Z</time>
      </trkpt>
      <trkpt lat="47.33709" lon="-1.9601">
        <ele>16</ele>
        <time>2014-09-25T09:48:39Z</time>
      </trkpt>
      <trkpt lat="47.33704" lon="-1.96029">
        <ele>16</ele>
        <time>2014-09-25T09:48:47Z</time>
      </trkpt>
      <trkpt lat="47.3371" lon="-1.96047">
        <ele>15</ele>
        <time>2014-09-25T09:49:01Z</time>
      </trkpt>
      <trkpt lat="47.33712" lon="-1.96068">
        <ele>13</ele>
        <time>2014-09-25T09:49:16Z</time>
      </trkpt>
      <trkpt lat="47.33713" lon="-1.96088">
        <ele>13</ele>
        <time>2014-09-25T09:49:25Z</time>
      </trkpt>
      <trkpt lat="47.33716" lon="-1.96108">
        <ele>14</ele>
        <time>2014-09-25T09:49:37Z</time>
      </trkpt>
      <trkpt lat="47.3372" lon="-1.96128">
        <ele>13</ele>
        <time>2014-09-25T09:49:49Z</time>
      </trkpt>
      <trkpt lat="47.33722" lon="-1.96149">
        <ele>17</ele>
        <time>2014-09-25T09:49:59Z</time>
      </trkpt>
      <trkpt lat="47.33724" lon="-1.96169">
        <ele>15</ele>
        <time>2014-09-25T09:50:15Z</time>
      </trkpt>
      <trkpt lat="47.33724" lon="-1.96189">
        <ele>14</ele>
        <time>2014-09-25T09:50:23Z</time>
      </trkpt>
      <trkpt lat="47.33729" lon="-1.96208">
        <ele>14</ele>
        <time>2014-09-25T09:50:33Z</time>
      </trkpt>
      <trkpt lat="47.33732" lon="-1.96228">
        <ele>14</ele>
        <time>2014-09-25T09:50:43Z</time>
      </trkpt>
      <trkpt lat="47.33732" lon="-1.9625">
        <ele>10</ele>
        <time>2014-09-25T09:50:54Z</time>
      </trkpt>
      <trkpt lat="47.33735" lon="-1.9627">
        <ele>10</ele>
        <time>2014-09-25T09:51:04Z</time>
      </trkpt>
      <trkpt lat="47.33739" lon="-1.9629">
        <ele>9</ele>
        <time>2014-09-25T09:51:21Z</time>
      </trkpt>
      <trkpt lat="47.33746" lon="-1.96309">
        <ele>9</ele>
        <time>2014-09-25T09:51:39Z</time>
      </trkpt>
      <trkpt lat="47.33759" lon="-1.96318">
        <ele>10</ele>
        <time>2014-09-25T09:51:48Z</time>
      </trkpt>
      <trkpt lat="47.33768" lon="-1.96332">
        <ele>9</ele>
        <time>2014-09-25T09:52:01Z</time>
      </trkpt>
      <trkpt lat="47.33782" lon="-1.96344">
        <ele>8</ele>
        <time>2014-09-25T09:52:09Z</time>
      </trkpt>
      <trkpt lat="47.33793" lon="-1.96358">
        <ele>11</ele>
        <time>2014-09-25T09:52:15Z</time>
      </trkpt>
      <trkpt lat="47.33807" lon="-1.96368">
        <ele>9</ele>
        <time>2014-09-25T09:52:21Z</time>
      </trkpt>
      <trkpt lat="47.33818" lon="-1.96382">
        <ele>11</ele>
        <time>2014-09-25T09:52:33Z</time>
      </trkpt>
      <trkpt lat="47.33828" lon="-1.96396">
        <ele>14</ele>
        <time>2014-09-25T09:52:45Z</time>
      </trkpt>
      <trkpt lat="47.33838" lon="-1.9641">
        <ele>16</ele>
        <time>2014-09-25T09:52:57Z</time>
      </trkpt>
      <trkpt lat="47.33848" lon="-1.96429">
        <ele>13</ele>
        <time>2014-09-25T09:53:08Z</time>
      </trkpt>
      <trkpt lat="47.33861" lon="-1.96435">
        <ele>16</ele>
        <time>2014-09-25T09:53:16Z</time>
      </trkpt>
      <trkpt lat="47.33872" lon="-1.96449">
        <ele>11</ele>
        <time>2014-09-25T09:53:36Z</time>
      </trkpt>
      <trkpt lat="47.33882" lon="-1.96464">
        <ele>11</ele>
        <time>2014-09-25T09:53:44Z</time>
      </trkpt>
      <trkpt lat="47.33892" lon="-1.96478">
        <ele>11</ele>
        <time>2014-09-25T09:53:54Z</time>
      </trkpt>
      <trkpt lat="47.339" lon="-1.96495">
        <ele>12</ele>
        <time>2014-09-25T09:54:03Z</time>
      </trkpt>
      <trkpt lat="47.33905" lon="-1.96515">
        <ele>10</ele>
        <time>2014-09-25T09:54:14Z</time>
      </trkpt>
      <trkpt lat="47.33907" lon="-1.96536">
        <ele>9</ele>
        <time>2014-09-25T09:54:25Z</time>
      </trkpt>
      <trkpt lat="47.3391" lon="-1.96555">
        <ele>10</ele>
        <time>2014-09-25T09:54:36Z</time>
      </trkpt>
      <trkpt lat="47.33915" lon="-1.96574">
        <ele>10</ele>
        <time>2014-09-25T09:54:47Z</time>
      </trkpt>
      <trkpt lat="47.33918" lon="-1.96595">
        <ele>9</ele>
        <time>2014-09-25T09:55:01Z</time>
      </trkpt>
      <trkpt lat="47.33919" lon="-1.96615">
        <ele>8</ele>
        <time>2014-09-25T09:55:15Z</time>
      </trkpt>
      <trkpt lat="47.33923" lon="-1.96636">
        <ele>5</ele>
        <time>2014-09-25T09:55:25Z</time>
      </trkpt>
      <trkpt lat="47.33927" lon="-1.96656">
        <ele>6</ele>
        <time>2014-09-25T09:55:34Z</time>
      </trkpt>
      <trkpt lat="47.33931" lon="-1.96675">
        <ele>6</ele>
        <time>2014-09-25T09:55:45Z</time>
      </trkpt>
      <trkpt lat="47.33921" lon="-1.96688">
        <ele>3</ele>
        <time>2014-09-25T09:55:58Z</time>
      </trkpt>
      <trkpt lat="47.33909" lon="-1.96699">
        <ele>2</ele>
        <time>2014-09-25T09:56:11Z</time>
      </trkpt>
      <trkpt lat="47.33899" lon="-1.96713">
        <ele>4</ele>
        <time>2014-09-25T09:56:21Z</time>
      </trkpt>
      <trkpt lat="47.33888" lon="-1.96728">
        <ele>3</ele>
        <time>2014-09-25T09:56:34Z</time>
      </trkpt>
      <trkpt lat="47.33875" lon="-1.96738">
        <ele>2</ele>
        <time>2014-09-25T09:56:48Z</time>
      </trkpt>
      <trkpt lat="47.33862" lon="-1.96739">
        <ele>4</ele>
        <time>2014-09-25T09:57:00Z</time>
      </trkpt>
      <trkpt lat="47.33849" lon="-1.96731">
        <ele>5</ele>
        <time>2014-09-25T09:57:16Z</time>
      </trkpt>
      <trkpt lat="47.33839" lon="-1.96718">
        <ele>4</ele>
        <time>2014-09-25T09:57:26Z</time>
      </trkpt>
      <trkpt lat="47.33825" lon="-1.96711">
        <ele>1</ele>
        <time>2014-09-25T09:57:39Z</time>
      </trkpt>
      <trkpt lat="47.33813" lon="-1.96698">
        <ele>4</ele>
        <time>2014-09-25T09:57:54Z</time>
      </trkpt>
      <trkpt lat="47.33803" lon="-1.96683">
        <ele>4</ele>
        <time>2014-09-25T09:58:05Z</time>
      </trkpt>
      <trkpt lat="47.33792" lon="-1.9667">
        <ele>5</ele>
        <time>2014-09-25T09:58:15Z</time>
      </trkpt>
      <trkpt lat="47.33782" lon="-1.96655">
        <ele>6</ele>
        <time>2014-09-25T09:58:25Z</time>
      </trkpt>
      <trkpt lat="47.3377" lon="-1.96645">
        <ele>2</ele>
        <time>2014-09-25T09:58:37Z</time>
      </trkpt>
      <trkpt lat="47.33758" lon="-1.96635">
        <ele>4</ele>
        <time>2014-09-25T09:58:50Z</time>
      </trkpt>
      <trkpt lat="47.33746" lon="-1.96625">
        <ele>1</ele>
        <time>2014-09-25T09:59:00Z</time>
      </trkpt>
      <trkpt lat="47.33734" lon="-1.96611">
        <ele>4</ele>
        <time>2014-09-25T09:59:43Z</time>
      </trkpt>
      <trkpt lat="47.33721" lon="-1.96601">
        <ele>3</ele>
        <time>2014-09-25T09:59:53Z</time>
      </trkpt>
      <trkpt lat="47.3371" lon="-1.96589">
        <ele>3</ele>
        <time>2014-09-25T10:00:05Z</time>
      </trkpt>
      <trkpt lat="47.337" lon="-1.96574">
        <ele>2</ele>
        <time>2014-09-25T10:00:13Z</time>
      </trkpt>
      <trkpt lat="47.33688" lon="-1.96562">
        <ele>3</ele>
        <time>2014-09-25T10:00:26Z</time>
      </trkpt>
      <trkpt lat="47.33678" lon="-1.96549">
        <ele>1</ele>
        <time>2014-09-25T10:00:38Z</time>
      </trkpt>
      <trkpt lat="47.33665" lon="-1.96541">
        <ele>4</ele>
        <time>2014-09-25T10:00:45Z</time>
      </trkpt>
      <trkpt lat="47.33654" lon="-1.96529">
        <ele>3</ele>
        <time>2014-09-25T10:00:56Z</time>
      </trkpt>
      <trkpt lat="47.33641" lon="-1.96512">
        <ele>6</ele>
        <time>2014-09-25T10:01:07Z</time>
      </trkpt>
      <trkpt lat="47.33631" lon="-1.96498">
        <ele>7</ele>
        <time>2014-09-25T10:01:18Z</time>
      </trkpt>
      <trkpt lat="47.3362" lon="-1.96486">
        <ele>5</ele>
        <time>2014-09-25T10:01:39Z</time>
      </trkpt>
      <trkpt lat="47.3361" lon="-1.96471">
        <ele>7</ele>
        <time>2014-09-25T10:01:52Z</time>
      </trkpt>
      <trkpt lat="47.33597" lon="-1.96458">
        <ele>6</ele>
        <time>2014-09-25T10:01:59Z</time>
      </trkpt>
      <trkpt lat="47.33585" lon="-1.96446">
        <ele>6</ele>
        <time>2014-09-25T10:02:07Z</time>
      </trkpt>
      <trkpt lat="47.33572" lon="-1.96436">
        <ele>9</ele>
        <time>2014-09-25T10:02:17Z</time>
      </trkpt>
      <trkpt lat="47.3356" lon="-1.96426">
        <ele>7</ele>
        <time>2014-09-25T10:02:29Z</time>
      </trkpt>
      <trkpt lat="47.33549" lon="-1.96412">
        <ele>8</ele>
        <time>2014-09-25T10:02:40Z</time>
      </trkpt>
      <trkpt lat="47.33537" lon="-1.964">
        <ele>9</ele>
        <time>2014-09-25T10:02:55Z</time>
      </trkpt>
      <trkpt lat="47.33527" lon="-1.96386">
        <ele>10</ele>
        <time>2014-09-25T10:03:10Z</time>
      </trkpt>
      <trkpt lat="47.33514" lon="-1.96376">
        <ele>11</ele>
        <time>2014-09-25T10:03:22Z</time>
      </trkpt>
      <trkpt lat="47.33503" lon="-1.96364">
        <ele>7</ele>
        <time>2014-09-25T10:03:33Z</time>
      </trkpt>
      <trkpt lat="47.33492" lon="-1.96351">
        <ele>7</ele>
        <time>2014-09-25T10:03:43Z</time>
      </trkpt>
      <trkpt lat="47.33481" lon="-1.96338">
        <ele>7</ele>
        <time>2014-09-25T10:03:54Z</time>
      </trkpt>
      <trkpt lat="47.33468" lon="-1.96328">
        <ele>6</ele>
        <time>2014-09-25T10:04:04Z</time>
      </trkpt>
      <trkpt lat="47.33458" lon="-1.96313">
        <ele>5</ele>
        <time>2014-09-25T10:04:17Z</time>
      </trkpt>
      <trkpt lat="47.3345" lon="-1.96297">
        <ele>6</ele>
        <time>2014-09-25T10:04:27Z</time>
      </trkpt>
      <trkpt lat="47.33441" lon="-1.96281">
        <ele>5</ele>
        <time>2014-09-25T10:04:41Z</time>
      </trkpt>
      <trkpt lat="47.33438" lon="-1.96262">
        <ele>6</ele>
        <time>2014-09-25T10:04:53Z</time>
      </trkpt>
      <trkpt lat="47.33432" lon="-1.96242">
        <ele>7</ele>
        <time>2014-09-25T10:05:06Z</time>
      </trkpt>
      <trkpt lat="47.33426" lon="-1.96223">
        <ele>7</ele>
        <time>2014-09-25T10:05:17Z</time>
      </trkpt>
      <trkpt lat="47.3342" lon="-1.96204">
        <ele>7</ele>
        <time>2014-09-25T10:05:28Z</time>
      </trkpt>
      <trkpt lat="47.33423" lon="-1.96184">
        <ele>10</ele>
        <time>2014-09-25T10:05:37Z</time>
      </trkpt>
      <trkpt lat="47.33422" lon="-1.96164">
        <ele>9</ele>
        <time>2014-09-25T10:05:49Z</time>
      </trkpt>
      <trkpt lat="47.33419" lon="-1.96143">
        <ele>9</ele>
        <time>2014-09-25T10:06:03Z</time>
      </trkpt>
      <trkpt lat="47.33412" lon="-1.96124">
        <ele>5</ele>
        <time>2014-09-25T10:06:26Z</time>
      </trkpt>
      <trkpt lat="47.33404" lon="-1.96107">
        <ele>8</ele>
        <time>2014-09-25T10:06:36Z</time>
      </trkpt>
      <trkpt lat="47.33391" lon="-1.96112">
        <ele>8</ele>
        <time>2014-09-25T10:06:46Z</time>
      </trkpt>
      <trkpt lat="47.33377" lon="-1.96114">
        <ele>4</ele>
        <time>2014-09-25T10:06:59Z</time>
      </trkpt>
      <trkpt lat="47.33363" lon="-1.96112">
        <ele>6</ele>
        <time>2014-09-25T10:07:13Z</time>
      </trkpt>
      <trkpt lat="47.33349" lon="-1.96114">
        <ele>2</ele>
        <time>2014-09-25T10:07:25Z</time>
      </trkpt>
      <trkpt lat="47.33335" lon="-1.96115">
        <ele>1</ele>
        <time>2014-09-25T10:07:36Z</time>
      </trkpt>
      <trkpt lat="47.33322" lon="-1.96117">
        <ele>2</ele>
        <time>2014-09-25T10:07:49Z</time>
      </trkpt>
      <trkpt lat="47.33307" lon="-1.96117">
        <ele>1</ele>
        <time>2014-09-25T10:07:59Z</time>
      </trkpt>
      <trkpt lat="47.33293" lon="-1.96118">
        <ele>4</ele>
        <time>2014-09-25T10:08:12Z</time>
      </trkpt>
      <trkpt lat="47.33279" lon="-1.96117">
        <ele>2</ele>
        <time>2014-09-25T10:08:22Z</time>
      </trkpt>
      <trkpt lat="47.33265" lon="-1.96115">
        <ele>2</ele>
        <time>2014-09-25T10:08:32Z</time>
      </trkpt>
      <trkpt lat="47.33252" lon="-1.96114">
        <ele>2</ele>
        <time>2014-09-25T10:08:44Z</time>
      </trkpt>
      <trkpt lat="47.33238" lon="-1.96113">
        <ele>4</ele>
        <time>2014-09-25T10:08:55Z</time>
      </trkpt>
      <trkpt lat="47.33224" lon="-1.96116">
        <ele>-1</ele>
        <time>2014-09-25T10:09:05Z</time>
      </trkpt>
      <trkpt lat="47.3321" lon="-1.96121">
        <ele>2</ele>
        <time>2014-09-25T10:09:16Z</time>
      </trkpt>
      <trkpt lat="47.33196" lon="-1.96124">
        <ele>3</ele>
        <time>2014-09-25T10:09:28Z</time>
      </trkpt>
      <trkpt lat="47.33182" lon="-1.96127">
        <ele>3</ele>
        <time>2014-09-25T10:09:40Z</time>
      </trkpt>
      <trkpt lat="47.33168" lon="-1.96128">
        <ele>5</ele>
        <time>2014-09-25T10:09:54Z</time>
      </trkpt>
      <trkpt lat="47.33155" lon="-1.96133">
        <ele>7</ele>
        <time>2014-09-25T10:10:03Z</time>
      </trkpt>
      <trkpt lat="47.33141" lon="-1.96137">
        <ele>7</ele>
        <time>2014-09-25T10:10:14Z</time>
      </trkpt>
      <trkpt lat="47.33128" lon="-1.96143">
        <ele>3</ele>
        <time>2014-09-25T10:10:26Z</time>
      </trkpt>
      <trkpt lat="47.33115" lon="-1.96153">
        <ele>5</ele>
        <time>2014-09-25T10:10:36Z</time>
      </trkpt>
      <trkpt lat="47.33102" lon="-1.96161">
        <ele>6</ele>
        <time>2014-09-25T10:10:46Z</time>
      </trkpt>
      <trkpt lat="47.33092" lon="-1.96175">
        <ele>4</ele>
        <time>2014-09-25T10:11:01Z</time>
      </trkpt>
      <trkpt lat="47.33079" lon="-1.96183">
        <ele>6</ele>
        <time>2014-09-25T10:11:13Z</time>
      </trkpt>
      <trkpt lat="47.33066" lon="-1.96194">
        <ele>8</ele>
        <time>2014-09-25T10:11:26Z</time>
      </trkpt>
      <trkpt lat="47.33053" lon="-1.96205">
        <ele>8</ele>
        <time>2014-09-25T10:11:36Z</time>
      </trkpt>
      <trkpt lat="47.33038" lon="-1.96209">
        <ele>7</ele>
        <time>2014-09-25T10:11:46Z</time>
      </trkpt>
      <trkpt lat="47.33029" lon="-1.96225">
        <ele>7</ele>
        <time>2014-09-25T10:11:59Z</time>
      </trkpt>
      <trkpt lat="47.33017" lon="-1.96232">
        <ele>9</ele>
        <time>2014-09-25T10:12:12Z</time>
      </trkpt>
      <trkpt lat="47.33005" lon="-1.96244">
        <ele>6</ele>
        <time>2014-09-25T10:12:24Z</time>
      </trkpt>
      <trkpt lat="47.32995" lon="-1.96257">
        <ele>7</ele>
        <time>2014-09-25T10:12:36Z</time>
      </trkpt>
      <trkpt lat="47.32984" lon="-1.9627">
        <ele>6</ele>
        <time>2014-09-25T10:12:46Z</time>
      </trkpt>
      <trkpt lat="47.32972" lon="-1.96282">
        <ele>7</ele>
        <time>2014-09-25T10:12:56Z</time>
      </trkpt>
      <trkpt lat="47.32961" lon="-1.96294">
        <ele>7</ele>
        <time>2014-09-25T10:13:02Z</time>
      </trkpt>
      <trkpt lat="47.32948" lon="-1.96301">
        <ele>8</ele>
        <time>2014-09-25T10:13:14Z</time>
      </trkpt>
      <trkpt lat="47.32936" lon="-1.96316">
        <ele>7</ele>
        <time>2014-09-25T10:13:26Z</time>
      </trkpt>
      <trkpt lat="47.32922" lon="-1.96326">
        <ele>8</ele>
        <time>2014-09-25T10:13:48Z</time>
      </trkpt>
      <trkpt lat="47.3291" lon="-1.96337">
        <ele>7</ele>
        <time>2014-09-25T10:14:00Z</time>
      </trkpt>
      <trkpt lat="47.32898" lon="-1.96351">
        <ele>8</ele>
        <time>2014-09-25T10:14:06Z</time>
      </trkpt>
      <trkpt lat="47.32886" lon="-1.96361">
        <ele>9</ele>
        <time>2014-09-25T10:14:21Z</time>
      </trkpt>
      <trkpt lat="47.32874" lon="-1.9637">
        <ele>7</ele>
        <time>2014-09-25T10:14:36Z</time>
      </trkpt>
      <trkpt lat="47.32862" lon="-1.96382">
        <ele>7</ele>
        <time>2014-09-25T10:14:50Z</time>
      </trkpt>
      <trkpt lat="47.32851" lon="-1.96395">
        <ele>4</ele>
        <time>2014-09-25T10:15:01Z</time>
      </trkpt>
      <trkpt lat="47.32838" lon="-1.96404">
        <ele>4</ele>
        <time>2014-09-25T10:15:12Z</time>
      </trkpt>
      <trkpt lat="47.32827" lon="-1.96417">
        <ele>6</ele>
        <time>2014-09-25T10:15:28Z</time>
      </trkpt>
      <trkpt lat="47.32815" lon="-1.96428">
        <ele>6</ele>
        <time>2014-09-25T10:15:40Z</time>
      </trkpt>
      <trkpt lat="47.32801" lon="-1.96429">
        <ele>5</ele>
        <time>2014-09-25T10:15:52Z</time>
      </trkpt>
      <trkpt lat="47.32791" lon="-1.96443">
        <ele>3</ele>
        <time>2014-09-25T10:16:30Z</time>
      </trkpt>
      <trkpt lat="47.32779" lon="-1.96455">
        <ele>2</ele>
        <time>2014-09-25T10:16:42Z</time>
      </trkpt>
      <trkpt lat="47.32768" lon="-1.96466">
        <ele>2</ele>
        <time>2014-09-25T10:16:54Z</time>
      </trkpt>
      <trkpt lat="47.32755" lon="-1.96477">
        <ele>4</ele>
        <time>2014-09-25T10:17:05Z</time>
      </trkpt>
      <trkpt lat="47.32742" lon="-1.96486">
        <ele>3</ele>
        <time>2014-09-25T10:17:17Z</time>
      </trkpt>
      <trkpt lat="47.3273" lon="-1.96497">
        <ele>3</ele>
        <time>2014-09-25T10:17:30Z</time>
      </trkpt>
      <trkpt lat="47.3272" lon="-1.96511">
        <ele>4</ele>
        <time>2014-09-25T10:17:41Z</time>
      </trkpt>
      <trkpt lat="47.32709" lon="-1.96524">
        <ele>5</ele>
        <time>2014-09-25T10:17:54Z</time>
      </trkpt>
      <trkpt lat="47.32708" lon="-1.96545">
        <ele>3</ele>
        <time>2014-09-25T10:18:05Z</time>
      </trkpt>
      <trkpt lat="47.3271" lon="-1.96566">
        <ele>3</ele>
        <time>2014-09-25T10:18:13Z</time>
      </trkpt>
      <trkpt lat="47.32703" lon="-1.96583">
        <ele>1</ele>
        <time>2014-09-25T10:18:36Z</time>
      </trkpt>
      <trkpt lat="47.327" lon="-1.96602">
        <ele>5</ele>
        <time>2014-09-25T10:18:48Z</time>
      </trkpt>
      <trkpt lat="47.32697" lon="-1.96623">
        <ele>8</ele>
        <time>2014-09-25T10:19:00Z</time>
      </trkpt>
      <trkpt lat="47.32694" lon="-1.96645">
        <ele>6</ele>
        <time>2014-09-25T10:19:12Z</time>
      </trkpt>
      <trkpt lat="47.32691" lon="-1.96666">
        <ele>6</ele>
        <time>2014-09-25T10:19:17Z</time>
      </trkpt>
      <trkpt lat="47.32694" lon="-1.96687">
        <ele>11</ele>
        <time>2014-09-25T10:19:26Z</time>
      </trkpt>
      <trkpt lat="47.32689" lon="-1.96707">
        <ele>10</ele>
        <time>2014-09-25T10:19:40Z</time>
      </trkpt>
      <trkpt lat="47.32689" lon="-1.96727">
        <ele>8</ele>
        <time>2014-09-25T10:19:54Z</time>
      </trkpt>
      <trkpt lat="47.32685" lon="-1.96747">
        <ele>11</ele>
        <time>2014-09-25T10:20:07Z</time>
      </trkpt>
      <trkpt lat="47.32684" lon="-1.96768">
        <ele>10</ele>
        <time>2014-09-25T10:20:21Z</time>
      </trkpt>
      <trkpt lat="47.32681" lon="-1.96788">
        <ele>11</ele>
        <time>2014-09-25T10:20:33Z</time>
      </trkpt>
      <trkpt lat="47.32668" lon="-1.96793">
        <ele>14</ele>
        <time>2014-09-25T10:21:01Z</time>
      </trkpt>
      <trkpt lat="47.32654" lon="-1.96791">
        <ele>15</ele>
        <time>2014-09-25T10:21:13Z</time>
      </trkpt>
      <trkpt lat="47.32641" lon="-1.96788">
        <ele>18</ele>
        <time>2014-09-25T10:21:20Z</time>
      </trkpt>
      <trkpt lat="47.32627" lon="-1.96784">
        <ele>19</ele>
        <time>2014-09-25T10:21:26Z</time>
      </trkpt>
      <trkpt lat="47.32615" lon="-1.96794">
        <ele>18</ele>
        <time>2014-09-25T10:21:42Z</time>
      </trkpt>
      <trkpt lat="47.32601" lon="-1.96795">
        <ele>13</ele>
        <time>2014-09-25T10:21:58Z</time>
      </trkpt>
      <trkpt lat="47.32588" lon="-1.96803">
        <ele>10</ele>
        <time>2014-09-25T10:22:08Z</time>
      </trkpt>
      <trkpt lat="47.32585" lon="-1.96822">
        <ele>15</ele>
        <time>2014-09-25T10:22:19Z</time>
      </trkpt>
      <trkpt lat="47.32583" lon="-1.96843">
        <ele>16</ele>
        <time>2014-09-25T10:22:32Z</time>
      </trkpt>
      <trkpt lat="47.32586" lon="-1.96864">
        <ele>17</ele>
        <time>2014-09-25T10:22:42Z</time>
      </trkpt>
      <trkpt lat="47.32582" lon="-1.96883">
        <ele>13</ele>
        <time>2014-09-25T10:22:55Z</time>
      </trkpt>
      <trkpt lat="47.32582" lon="-1.96904">
        <ele>16</ele>
        <time>2014-09-25T10:23:03Z</time>
      </trkpt>
      <trkpt lat="47.32584" lon="-1.96923">
        <ele>15</ele>
        <time>2014-09-25T10:23:15Z</time>
      </trkpt>
      <trkpt lat="47.32589" lon="-1.96942">
        <ele>15</ele>
        <time>2014-09-25T10:23:24Z</time>
      </trkpt>
      <trkpt lat="47.32589" lon="-1.96962">
        <ele>14</ele>
        <time>2014-09-25T10:23:35Z</time>
      </trkpt>
      <trkpt lat="47.32588" lon="-1.96984">
        <ele>13</ele>
        <time>2014-09-25T10:23:45Z</time>
      </trkpt>
      <trkpt lat="47.32582" lon="-1.97002">
        <ele>12</ele>
        <time>2014-09-25T10:23:59Z</time>
      </trkpt>
      <trkpt lat="47.32574" lon="-1.97018">
        <ele>9</ele>
        <time>2014-09-25T10:24:13Z</time>
      </trkpt>
      <trkpt lat="47.32567" lon="-1.97035">
        <ele>8</ele>
        <time>2014-09-25T10:24:20Z</time>
      </trkpt>
      <trkpt lat="47.32566" lon="-1.97056">
        <ele>8</ele>
        <time>2014-09-25T10:24:32Z</time>
      </trkpt>
      <trkpt lat="47.32571" lon="-1.97075">
        <ele>7</ele>
        <time>2014-09-25T10:24:42Z</time>
      </trkpt>
      <trkpt lat="47.32578" lon="-1.97094">
        <ele>9</ele>
        <time>2014-09-25T10:24:54Z</time>
      </trkpt>
      <trkpt lat="47.32583" lon="-1.97113">
        <ele>8</ele>
        <time>2014-09-25T10:25:05Z</time>
      </trkpt>
      <trkpt lat="47.32591" lon="-1.9713">
        <ele>7</ele>
        <time>2014-09-25T10:25:16Z</time>
      </trkpt>
      <trkpt lat="47.32596" lon="-1.97149">
        <ele>10</ele>
        <time>2014-09-25T10:25:25Z</time>
      </trkpt>
      <trkpt lat="47.326" lon="-1.97168">
        <ele>8</ele>
        <time>2014-09-25T10:25:34Z</time>
      </trkpt>
      <trkpt lat="47.32598" lon="-1.97191">
        <ele>8</ele>
        <time>2014-09-25T10:25:49Z</time>
      </trkpt>
      <trkpt lat="47.32604" lon="-1.97209">
        <ele>4</ele>
        <time>2014-09-25T10:25:57Z</time>
      </trkpt>
      <trkpt lat="47.32609" lon="-1.97228">
        <ele>5</ele>
        <time>2014-09-25T10:26:14Z</time>
      </trkpt>
      <trkpt lat="47.32612" lon="-1.97248">
        <ele>5</ele>
        <time>2014-09-25T10:26:25Z</time>
      </trkpt>
      <trkpt lat="47.3261" lon="-1.9727">
        <ele>4</ele>
        <time>2014-09-25T10:26:43Z</time>
      </trkpt>
      <trkpt lat="47.32613" lon="-1.9729">
        <ele>4</ele>
        <time>2014-09-25T10:26:51Z</time>
      </trkpt>
      <trkpt lat="47.32615" lon="-1.97311">
        <ele>7</ele>
        <time>2014-09-25T10:27:00Z</time>
      </trkpt>
      <trkpt lat="47.32616" lon="-1.97333">
        <ele>7</ele>
        <time>2014-09-25T10:27:10Z</time>
      </trkpt>
      <trkpt lat="47.32617" lon="-1.97354">
        <ele>7</ele>
        <time>2014-09-25T10:27:18Z</time>
      </trkpt>
      <trkpt lat="47.32617" lon="-1.97375">
        <ele>8</ele>
        <time>2014-09-25T10:27:31Z</time>
      </trkpt>
      <trkpt lat="47.32618" lon="-1.97395">
        <ele>6</ele>
        <time>2014-09-25T10:27:42Z</time>
      </trkpt>
      <trkpt lat="47.32618" lon="-1.97417">
        <ele>6</ele>
        <time>2014-09-25T10:27:54Z</time>
      </trkpt>
      <trkpt lat="47.32622" lon="-1.97437">
        <ele>5</ele>
        <time>2014-09-25T10:28:05Z</time>
      </trkpt>
      <trkpt lat="47.32624" lon="-1.97457">
        <ele>7</ele>
        <time>2014-09-25T10:28:18Z</time>
      </trkpt>
      <trkpt lat="47.32616" lon="-1.97475">
        <ele>6</ele>
        <time>2014-09-25T10:28:28Z</time>
      </trkpt>
      <trkpt lat="47.32601" lon="-1.97479">
        <ele>7</ele>
        <time>2014-09-25T10:28:31Z</time>
      </trkpt>
      <trkpt lat="47.32587" lon="-1.97474">
        <ele>6</ele>
        <time>2014-09-25T10:28:36Z</time>
      </trkpt>
      <trkpt lat="47.32579" lon="-1.9749">
        <ele>4</ele>
        <time>2014-09-25T10:29:09Z</time>
      </trkpt>
      <trkpt lat="47.32566" lon="-1.97482">
        <ele>4</ele>
        <time>2014-09-25T10:29:22Z</time>
      </trkpt>
      <trkpt lat="47.32553" lon="-1.97474">
        <ele>1</ele>
        <time>2014-09-25T10:29:37Z</time>
      </trkpt>
      <trkpt lat="47.3254" lon="-1.97464">
        <ele>2</ele>
        <time>2014-09-25T10:29:50Z</time>
      </trkpt>
      <trkpt lat="47.32529" lon="-1.97453">
        <ele>4</ele>
        <time>2014-09-25T10:30:00Z</time>
      </trkpt>
      <trkpt lat="47.32516" lon="-1.97448">
        <ele>2</ele>
        <time>2014-09-25T10:30:17Z</time>
      </trkpt>
      <trkpt lat="47.32502" lon="-1.97442">
        <ele>2</ele>
        <time>2014-09-25T10:30:28Z</time>
      </trkpt>
      <trkpt lat="47.32489" lon="-1.97436">
        <ele>2</ele>
        <time>2014-09-25T10:30:41Z</time>
      </trkpt>
      <trkpt lat="47.32475" lon="-1.97437">
        <ele>3</ele>
        <time>2014-09-25T10:30:49Z</time>
      </trkpt>
      <trkpt lat="47.32461" lon="-1.97437">
        <ele>4</ele>
        <time>2014-09-25T10:30:59Z</time>
      </trkpt>
      <trkpt lat="47.32448" lon="-1.97442">
        <ele>5</ele>
        <time>2014-09-25T10:31:10Z</time>
      </trkpt>
      <trkpt lat="47.32433" lon="-1.9744">
        <ele>6</ele>
        <time>2014-09-25T10:31:22Z</time>
      </trkpt>
      <trkpt lat="47.32419" lon="-1.97444">
        <ele>7</ele>
        <time>2014-09-25T10:31:31Z</time>
      </trkpt>
      <trkpt lat="47.32405" lon="-1.97443">
        <ele>10</ele>
        <time>2014-09-25T10:31:48Z</time>
      </trkpt>
      <trkpt lat="47.32391" lon="-1.97448">
        <ele>10</ele>
        <time>2014-09-25T10:31:55Z</time>
      </trkpt>
      <trkpt lat="47.32377" lon="-1.97444">
        <ele>9</ele>
        <time>2014-09-25T10:32:07Z</time>
      </trkpt>
      <trkpt lat="47.32363" lon="-1.97447">
        <ele>9</ele>
        <time>2014-09-25T10:32:16Z</time>
      </trkpt>
      <trkpt lat="47.32352" lon="-1.97457">
        <ele>7</ele>
        <time>2014-09-25T10:32:29Z</time>
      </trkpt>
      <trkpt lat="47.3235" lon="-1.97477">
        <ele>4</ele>
        <time>2014-09-25T10:32:38Z</time>
      </trkpt>
      <trkpt lat="47.32356" lon="-1.97497">
        <ele>3</ele>
        <time>2014-09-25T10:32:52Z</time>
      </trkpt>
      <trkpt lat="47.32355" lon="-1.97517">
        <ele>2</ele>
        <time>2014-09-25T10:33:05Z</time>
      </trkpt>
      <trkpt lat="47.32359" lon="-1.97536">
        <ele>3</ele>
        <time>2014-09-25T10:33:17Z</time>
      </trkpt>
      <trkpt lat="47.32361" lon="-1.97557">
        <ele>3</ele>
        <time>2014-09-25T10:33:30Z</time>
      </trkpt>
      <trkpt lat="47.32367" lon="-1.97575">
        <ele>4</ele>
        <time>2014-09-25T10:33:42Z</time>
      </trkpt>
      <trkpt lat="47.3237" lon="-1.97597">
        <ele>1</ele>
        <time>2014-09-25T10:33:55Z</time>
      </trkpt>
      <trkpt lat="47.32376" lon="-1.97617">
        <ele>2</ele>
        <time>2014-09-25T10:34:05Z</time>
      </trkpt>
      <trkpt lat="47.32378" lon="-1.97637">
        <ele>2</ele>
        <time>2014-09-25T10:34:19Z</time>
      </trkpt>
      <trkpt lat="47.32372" lon="-1.97655">
        <ele>1</ele>
        <time>2014-09-25T10:34:35Z</time>
      </trkpt>
      <trkpt lat="47.32359" lon="-1.97666">
        <ele>-1</ele>
        <time>2014-09-25T10:34:50Z</time>
      </trkpt>
      <trkpt lat="47.32346" lon="-1.97676">
        <ele>-6</ele>
        <time>2014-09-25T10:35:02Z</time>
      </trkpt>
      <trkpt lat="47.32334" lon="-1.97687">
        <ele>-5</ele>
        <time>2014-09-25T10:35:12Z</time>
      </trkpt>
      <trkpt lat="47.32324" lon="-1.97701">
        <ele>-3</ele>
        <time>2014-09-25T10:35:24Z</time>
      </trkpt>
      <trkpt lat="47.32311" lon="-1.97708">
        <ele>1</ele>
        <time>2014-09-25T10:35:37Z</time>
      </trkpt>
      <trkpt lat="47.32299" lon="-1.97719">
        <ele>-1</ele>
        <time>2014-09-25T10:35:48Z</time>
      </trkpt>
      <trkpt lat="47.32287" lon="-1.9773">
        <ele>-2</ele>
        <time>2014-09-25T10:35:58Z</time>
      </trkpt>
      <trkpt lat="47.32276" lon="-1.97742">
        <ele>-5</ele>
        <time>2014-09-25T10:36:05Z</time>
      </trkpt>
      <trkpt lat="47.32263" lon="-1.97752">
        <ele>-3</ele>
        <time>2014-09-25T10:36:19Z</time>
      </trkpt>
      <trkpt lat="47.3225" lon="-1.97758">
        <ele>-2</ele>
        <time>2014-09-25T10:36:30Z</time>
      </trkpt>
      <trkpt lat="47.32238" lon="-1.97769">
        <ele>-2</ele>
        <time>2014-09-25T10:36:44Z</time>
      </trkpt>
      <trkpt lat="47.32224" lon="-1.97785">
        <ele>-5</ele>
        <time>2014-09-25T10:36:51Z</time>
      </trkpt>
      <trkpt lat="47.32211" lon="-1.97794">
        <ele>-6</ele>
        <time>2014-09-25T10:37:07Z</time>
      </trkpt>
      <trkpt lat="47.32192" lon="-1.97805">
        <ele>-5</ele>
        <time>2014-09-25T10:37:21Z</time>
      </trkpt>
      <trkpt lat="47.3218" lon="-1.97816">
        <ele>-9</ele>
        <time>2014-09-25T10:37:36Z</time>
      </trkpt>
      <trkpt lat="47.32167" lon="-1.97825">
        <ele>-10</ele>
        <time>2014-09-25T10:37:51Z</time>
      </trkpt>
      <trkpt lat="47.32154" lon="-1.97831">
        <ele>-8</ele>
        <time>2014-09-25T10:38:01Z</time>
      </trkpt>
      <trkpt lat="47.32142" lon="-1.97842">
        <ele>-7</ele>
        <time>2014-09-25T10:38:15Z</time>
      </trkpt>
      <trkpt lat="47.32129" lon="-1.97846">
        <ele>-5</ele>
        <time>2014-09-25T10:38:28Z</time>
      </trkpt>
      <trkpt lat="47.32106" lon="-1.97876">
        <ele>-3</ele>
        <time>2014-09-25T10:38:35Z</time>
      </trkpt>
      <trkpt lat="47.32095" lon="-1.97863">
        <ele>-5</ele>
        <time>2014-09-25T10:39:00Z</time>
      </trkpt>
      <trkpt lat="47.32082" lon="-1.97871">
        <ele>-2</ele>
        <time>2014-09-25T10:39:14Z</time>
      </trkpt>
      <trkpt lat="47.3207" lon="-1.97881">
        <ele>-4</ele>
        <time>2014-09-25T10:39:23Z</time>
      </trkpt>
      <trkpt lat="47.32058" lon="-1.97891">
        <ele>-7</ele>
        <time>2014-09-25T10:39:33Z</time>
      </trkpt>
      <trkpt lat="47.32046" lon="-1.97901">
        <ele>-4</ele>
        <time>2014-09-25T10:39:43Z</time>
      </trkpt>
      <trkpt lat="47.32032" lon="-1.97907">
        <ele>-6</ele>
        <time>2014-09-25T10:39:54Z</time>
      </trkpt>
      <trkpt lat="47.32019" lon="-1.97913">
        <ele>-7</ele>
        <time>2014-09-25T10:40:13Z</time>
      </trkpt>
      <trkpt lat="47.32005" lon="-1.97916">
        <ele>-7</ele>
        <time>2014-09-25T10:40:29Z</time>
      </trkpt>
      <trkpt lat="47.31993" lon="-1.97928">
        <ele>-8</ele>
        <time>2014-09-25T10:40:38Z</time>
      </trkpt>
      <trkpt lat="47.31976" lon="-1.9794">
        <ele>-8</ele>
        <time>2014-09-25T10:40:46Z</time>
      </trkpt>
      <trkpt lat="47.31964" lon="-1.97948">
        <ele>-10</ele>
        <time>2014-09-25T10:40:53Z</time>
      </trkpt>
      <trkpt lat="47.31951" lon="-1.9794">
        <ele>-6</ele>
        <time>2014-09-25T10:41:00Z</time>
      </trkpt>
      <trkpt lat="47.31939" lon="-1.97951">
        <ele>-3</ele>
        <time>2014-09-25T10:41:22Z</time>
      </trkpt>
      <trkpt lat="47.31926" lon="-1.9796">
        <ele>-3</ele>
        <time>2014-09-25T10:41:34Z</time>
      </trkpt>
      <trkpt lat="47.31913" lon="-1.97968">
        <ele>-2</ele>
        <time>2014-09-25T10:41:45Z</time>
      </trkpt>
      <trkpt lat="47.31901" lon="-1.97978">
        <ele>-2</ele>
        <time>2014-09-25T10:41:52Z</time>
      </trkpt>
      <trkpt lat="47.31888" lon="-1.9799">
        <ele>-3</ele>
        <time>2014-09-25T10:42:10Z</time>
      </trkpt>
      <trkpt lat="47.31879" lon="-1.98005">
        <ele>-4</ele>
        <time>2014-09-25T10:42:18Z</time>
      </trkpt>
      <trkpt lat="47.31866" lon="-1.98011">
        <ele>-8</ele>
        <time>2014-09-25T10:42:35Z</time>
      </trkpt>
      <trkpt lat="47.31856" lon="-1.98028">
        <ele>-13</ele>
        <time>2014-09-25T10:42:51Z</time>
      </trkpt>
      <trkpt lat="47.31845" lon="-1.98042">
        <ele>-10</ele>
        <time>2014-09-25T10:43:01Z</time>
      </trkpt>
      <trkpt lat="47.31834" lon="-1.98054">
        <ele>-10</ele>
        <time>2014-09-25T10:43:10Z</time>
      </trkpt>
      <trkpt lat="47.31823" lon="-1.98064">
        <ele>-9</ele>
        <time>2014-09-25T10:43:25Z</time>
      </trkpt>
      <trkpt lat="47.31811" lon="-1.98077">
        <ele>-9</ele>
        <time>2014-09-25T10:43:36Z</time>
      </trkpt>
      <trkpt lat="47.31801" lon="-1.9809">
        <ele>-9</ele>
        <time>2014-09-25T10:43:45Z</time>
      </trkpt>
      <trkpt lat="47.31789" lon="-1.98104">
        <ele>-8</ele>
        <time>2014-09-25T10:43:52Z</time>
      </trkpt>
      <trkpt lat="47.31779" lon="-1.98121">
        <ele>-9</ele>
        <time>2014-09-25T10:44:08Z</time>
      </trkpt>
      <trkpt lat="47.31767" lon="-1.98139">
        <ele>-9</ele>
        <time>2014-09-25T10:44:17Z</time>
      </trkpt>
      <trkpt lat="47.31754" lon="-1.98142">
        <ele>-9</ele>
        <time>2014-09-25T10:44:33Z</time>
      </trkpt>
      <trkpt lat="47.31744" lon="-1.98156">
        <ele>-8</ele>
        <time>2014-09-25T10:44:40Z</time>
      </trkpt>
      <trkpt lat="47.31732" lon="-1.98175">
        <ele>-9</ele>
        <time>2014-09-25T10:44:54Z</time>
      </trkpt>
      <trkpt lat="47.31721" lon="-1.98187">
        <ele>-12</ele>
        <time>2014-09-25T10:45:20Z</time>
      </trkpt>
      <trkpt lat="47.31709" lon="-1.98197">
        <ele>-11</ele>
        <time>2014-09-25T10:45:30Z</time>
      </trkpt>
      <trkpt lat="47.31699" lon="-1.98212">
        <ele>-11</ele>
        <time>2014-09-25T10:45:39Z</time>
      </trkpt>
      <trkpt lat="47.31687" lon="-1.98222">
        <ele>-10</ele>
        <time>2014-09-25T10:45:51Z</time>
      </trkpt>
      <trkpt lat="47.31677" lon="-1.9824">
        <ele>3</ele>
        <time>2014-09-25T10:46:43Z</time>
      </trkpt>
      <trkpt lat="47.31667" lon="-1.98253">
        <ele>3</ele>
        <time>2014-09-25T10:46:50Z</time>
      </trkpt>
      <trkpt lat="47.31653" lon="-1.98249">
        <ele>2</ele>
        <time>2014-09-25T10:47:34Z</time>
      </trkpt>
      <trkpt lat="47.31639" lon="-1.98261">
        <ele>4</ele>
        <time>2014-09-25T10:47:41Z</time>
      </trkpt>
      <trkpt lat="47.31627" lon="-1.98251">
        <ele>2</ele>
        <time>2014-09-25T10:48:07Z</time>
      </trkpt>
      <trkpt lat="47.31613" lon="-1.98249">
        <ele>2</ele>
        <time>2014-09-25T10:48:16Z</time>
      </trkpt>
      <trkpt lat="47.31602" lon="-1.98265">
        <ele>2</ele>
        <time>2014-09-25T10:48:22Z</time>
      </trkpt>
      <trkpt lat="47.31586" lon="-1.98264">
        <ele>2</ele>
        <time>2014-09-25T10:48:45Z</time>
      </trkpt>
      <trkpt lat="47.31574" lon="-1.98275">
        <ele>2</ele>
        <time>2014-09-25T10:48:59Z</time>
      </trkpt>
      <trkpt lat="47.31562" lon="-1.98284">
        <ele>1</ele>
        <time>2014-09-25T10:49:04Z</time>
      </trkpt>
      <trkpt lat="47.31548" lon="-1.9829">
        <ele>1</ele>
        <time>2014-09-25T10:49:15Z</time>
      </trkpt>
      <trkpt lat="47.31535" lon="-1.98295">
        <ele>-2</ele>
        <time>2014-09-25T10:49:33Z</time>
      </trkpt>
      <trkpt lat="47.31522" lon="-1.98306">
        <ele>-2</ele>
        <time>2014-09-25T10:49:45Z</time>
      </trkpt>
      <trkpt lat="47.31508" lon="-1.98314">
        <ele>-2</ele>
        <time>2014-09-25T10:49:52Z</time>
      </trkpt>
      <trkpt lat="47.31498" lon="-1.98327">
        <ele>-3</ele>
        <time>2014-09-25T10:50:08Z</time>
      </trkpt>
      <trkpt lat="47.31485" lon="-1.98336">
        <ele>-4</ele>
        <time>2014-09-25T10:50:18Z</time>
      </trkpt>
      <trkpt lat="47.31478" lon="-1.98354">
        <ele>-2</ele>
        <time>2014-09-25T10:50:26Z</time>
      </trkpt>
      <trkpt lat="47.31473" lon="-1.98374">
        <ele>-1</ele>
        <time>2014-09-25T10:50:34Z</time>
      </trkpt>
      <trkpt lat="47.31467" lon="-1.98394">
        <ele>1</ele>
        <time>2014-09-25T10:50:41Z</time>
      </trkpt>
      <trkpt lat="47.31462" lon="-1.98413">
        <ele>3</ele>
        <time>2014-09-25T10:50:54Z</time>
      </trkpt>
      <trkpt lat="47.31455" lon="-1.98431">
        <ele>2</ele>
        <time>2014-09-25T10:51:09Z</time>
      </trkpt>
      <trkpt lat="47.31441" lon="-1.98435">
        <ele>3.1</ele>
        <time>2014-09-25T10:51:20Z</time>
      </trkpt>
      <trkpt lat="47.31426" lon="-1.98439">
        <ele>2</ele>
        <time>2014-09-25T10:51:35Z</time>
      </trkpt>
      <trkpt lat="47.31412" lon="-1.98442">
        <ele>3</ele>
        <time>2014-09-25T10:51:48Z</time>
      </trkpt>
      <trkpt lat="47.31398" lon="-1.98443">
        <ele>3</ele>
        <time>2014-09-25T10:51:59Z</time>
      </trkpt>
      <trkpt lat="47.31384" lon="-1.98447">
        <ele>3</ele>
        <time>2014-09-25T10:52:09Z</time>
      </trkpt>
      <trkpt lat="47.31372" lon="-1.98457">
        <ele>1</ele>
        <time>2014-09-25T10:52:22Z</time>
      </trkpt>
      <trkpt lat="47.31358" lon="-1.98457">
        <ele>-1</ele>
        <time>2014-09-25T10:52:35Z</time>
      </trkpt>
      <trkpt lat="47.31345" lon="-1.98448">
        <ele>3</ele>
        <time>2014-09-25T10:52:48Z</time>
      </trkpt>
      <trkpt lat="47.31333" lon="-1.98436">
        <ele>2</ele>
        <time>2014-09-25T10:52:57Z</time>
      </trkpt>
      <trkpt lat="47.31321" lon="-1.98428">
        <ele>3</ele>
        <time>2014-09-25T10:53:07Z</time>
      </trkpt>
      <trkpt lat="47.31316" lon="-1.98408">
        <ele>3</ele>
        <time>2014-09-25T10:53:18Z</time>
      </trkpt>
      <trkpt lat="47.31305" lon="-1.98394">
        <ele>3</ele>
        <time>2014-09-25T10:53:30Z</time>
      </trkpt>
      <trkpt lat="47.31292" lon="-1.98382">
        <ele>3</ele>
        <time>2014-09-25T10:53:39Z</time>
      </trkpt>
      <trkpt lat="47.31285" lon="-1.98364">
        <ele>1</ele>
        <time>2014-09-25T10:53:50Z</time>
      </trkpt>
      <trkpt lat="47.31279" lon="-1.98345">
        <ele>2</ele>
        <time>2014-09-25T10:54:06Z</time>
      </trkpt>
      <trkpt lat="47.31273" lon="-1.98326">
        <ele>6</ele>
        <time>2014-09-25T10:54:19Z</time>
      </trkpt>
      <trkpt lat="47.31274" lon="-1.98305">
        <ele>5</ele>
        <time>2014-09-25T10:54:31Z</time>
      </trkpt>
      <trkpt lat="47.31274" lon="-1.98284">
        <ele>4</ele>
        <time>2014-09-25T10:54:41Z</time>
      </trkpt>
      <trkpt lat="47.31274" lon="-1.98263">
        <ele>2</ele>
        <time>2014-09-25T10:54:55Z</time>
      </trkpt>
      <trkpt lat="47.31272" lon="-1.98242">
        <ele>5</ele>
        <time>2014-09-25T10:55:09Z</time>
      </trkpt>
      <trkpt lat="47.31269" lon="-1.98222">
        <ele>5</ele>
        <time>2014-09-25T10:55:19Z</time>
      </trkpt>
      <trkpt lat="47.31265" lon="-1.98201">
        <ele>4</ele>
        <time>2014-09-25T10:55:31Z</time>
      </trkpt>
      <trkpt lat="47.31259" lon="-1.98182">
        <ele>8</ele>
        <time>2014-09-25T10:55:40Z</time>
      </trkpt>
      <trkpt lat="47.31253" lon="-1.98162">
        <ele>9</ele>
        <time>2014-09-25T10:55:50Z</time>
      </trkpt>
      <trkpt lat="47.3125" lon="-1.98142">
        <ele>10</ele>
        <time>2014-09-25T10:56:03Z</time>
      </trkpt>
      <trkpt lat="47.31248" lon="-1.98121">
        <ele>8</ele>
        <time>2014-09-25T10:56:18Z</time>
      </trkpt>
      <trkpt lat="47.31239" lon="-1.98104">
        <ele>8</ele>
        <time>2014-09-25T10:56:27Z</time>
      </trkpt>
      <trkpt lat="47.31236" lon="-1.98085">
        <ele>4</ele>
        <time>2014-09-25T10:56:38Z</time>
      </trkpt>
      <trkpt lat="47.31248" lon="-1.98073">
        <ele>9</ele>
        <time>2014-09-25T10:57:11Z</time>
      </trkpt>
      <trkpt lat="47.31235" lon="-1.98068">
        <ele>4</ele>
        <time>2014-09-25T10:57:36Z</time>
      </trkpt>
      <trkpt lat="47.31224" lon="-1.98054">
        <ele>4</ele>
        <time>2014-09-25T10:57:43Z</time>
      </trkpt>
      <trkpt lat="47.3122" lon="-1.98034">
        <ele>4</ele>
        <time>2014-09-25T10:57:56Z</time>
      </trkpt>
      <trkpt lat="47.31217" lon="-1.98014">
        <ele>3</ele>
        <time>2014-09-25T10:58:14Z</time>
      </trkpt>
      <trkpt lat="47.31215" lon="-1.9799">
        <ele>5</ele>
        <time>2014-09-25T10:58:22Z</time>
      </trkpt>
      <trkpt lat="47.31218" lon="-1.97969">
        <ele>7</ele>
        <time>2014-09-25T10:58:29Z</time>
      </trkpt>
      <trkpt lat="47.31223" lon="-1.97951">
        <ele>5</ele>
        <time>2014-09-25T10:58:42Z</time>
      </trkpt>
      <trkpt lat="47.31228" lon="-1.97929">
        <ele>10</ele>
        <time>2014-09-25T10:58:52Z</time>
      </trkpt>
      <trkpt lat="47.3123" lon="-1.97909">
        <ele>9</ele>
        <time>2014-09-25T10:59:01Z</time>
      </trkpt>
      <trkpt lat="47.31223" lon="-1.97891">
        <ele>7</ele>
        <time>2014-09-25T10:59:16Z</time>
      </trkpt>
      <trkpt lat="47.31213" lon="-1.97876">
        <ele>8</ele>
        <time>2014-09-25T10:59:26Z</time>
      </trkpt>
      <trkpt lat="47.31202" lon="-1.97862">
        <ele>9</ele>
        <time>2014-09-25T10:59:36Z</time>
      </trkpt>
      <trkpt lat="47.31192" lon="-1.97848">
        <ele>8</ele>
        <time>2014-09-25T10:59:46Z</time>
      </trkpt>
      <trkpt lat="47.31189" lon="-1.97828">
        <ele>8</ele>
        <time>2014-09-25T11:00:00Z</time>
      </trkpt>
      <trkpt lat="47.31187" lon="-1.97806">
        <ele>8</ele>
        <time>2014-09-25T11:00:13Z</time>
      </trkpt>
      <trkpt lat="47.31177" lon="-1.97791">
        <ele>6</ele>
        <time>2014-09-25T11:00:22Z</time>
      </trkpt>
      <trkpt lat="47.3117" lon="-1.97773">
        <ele>5</ele>
        <time>2014-09-25T11:00:30Z</time>
      </trkpt>
      <trkpt lat="47.31169" lon="-1.97752">
        <ele>6</ele>
        <time>2014-09-25T11:00:41Z</time>
      </trkpt>
      <trkpt lat="47.31169" lon="-1.97731">
        <ele>6</ele>
        <time>2014-09-25T11:00:55Z</time>
      </trkpt>
      <trkpt lat="47.31159" lon="-1.97715">
        <ele>8</ele>
        <time>2014-09-25T11:01:02Z</time>
      </trkpt>
      <trkpt lat="47.3115" lon="-1.97697">
        <ele>9</ele>
        <time>2014-09-25T11:01:08Z</time>
      </trkpt>
      <trkpt lat="47.31154" lon="-1.97677">
        <ele>7</ele>
        <time>2014-09-25T11:01:24Z</time>
      </trkpt>
      <trkpt lat="47.31151" lon="-1.97657">
        <ele>9</ele>
        <time>2014-09-25T11:01:35Z</time>
      </trkpt>
      <trkpt lat="47.31142" lon="-1.97641">
        <ele>6</ele>
        <time>2014-09-25T11:01:44Z</time>
      </trkpt>
      <trkpt lat="47.31137" lon="-1.97617">
        <ele>8</ele>
        <time>2014-09-25T11:02:05Z</time>
      </trkpt>
      <trkpt lat="47.31136" lon="-1.97595">
        <ele>10</ele>
        <time>2014-09-25T11:02:08Z</time>
      </trkpt>
      <trkpt lat="47.31124" lon="-1.97605">
        <ele>8</ele>
        <time>2014-09-25T11:02:25Z</time>
      </trkpt>
      <trkpt lat="47.3111" lon="-1.97605">
        <ele>5</ele>
        <time>2014-09-25T11:02:39Z</time>
      </trkpt>
      <trkpt lat="47.31098" lon="-1.97617">
        <ele>4</ele>
        <time>2014-09-25T11:02:51Z</time>
      </trkpt>
      <trkpt lat="47.31086" lon="-1.97629">
        <ele>4</ele>
        <time>2014-09-25T11:03:00Z</time>
      </trkpt>
      <trkpt lat="47.31072" lon="-1.97629">
        <ele>1</ele>
        <time>2014-09-25T11:03:14Z</time>
      </trkpt>
      <trkpt lat="47.3106" lon="-1.97638">
        <ele>3</ele>
        <time>2014-09-25T11:03:25Z</time>
      </trkpt>
      <trkpt lat="47.31048" lon="-1.97649">
        <ele>1</ele>
        <time>2014-09-25T11:03:39Z</time>
      </trkpt>
      <trkpt lat="47.31036" lon="-1.9766">
        <ele>2</ele>
        <time>2014-09-25T11:03:48Z</time>
      </trkpt>
      <trkpt lat="47.31024" lon="-1.97671">
        <ele>2</ele>
        <time>2014-09-25T11:03:58Z</time>
      </trkpt>
      <trkpt lat="47.31011" lon="-1.97676">
        <ele>2</ele>
        <time>2014-09-25T11:04:09Z</time>
      </trkpt>
      <trkpt lat="47.30996" lon="-1.97672">
        <ele>3</ele>
        <time>2014-09-25T11:04:18Z</time>
      </trkpt>
      <trkpt lat="47.30982" lon="-1.97669">
        <ele>6</ele>
        <time>2014-09-25T11:04:31Z</time>
      </trkpt>
      <trkpt lat="47.3097" lon="-1.97659">
        <ele>5</ele>
        <time>2014-09-25T11:04:39Z</time>
      </trkpt>
      <trkpt lat="47.30957" lon="-1.9765">
        <ele>4</ele>
        <time>2014-09-25T11:04:45Z</time>
      </trkpt>
      <trkpt lat="47.3095" lon="-1.97632">
        <ele>6</ele>
        <time>2014-09-25T11:04:53Z</time>
      </trkpt>
      <trkpt lat="47.30948" lon="-1.97613">
        <ele>7</ele>
        <time>2014-09-25T11:05:04Z</time>
      </trkpt>
      <trkpt lat="47.30941" lon="-1.97594">
        <ele>7</ele>
        <time>2014-09-25T11:05:17Z</time>
      </trkpt>
      <trkpt lat="47.30935" lon="-1.97575">
        <ele>9</ele>
        <time>2014-09-25T11:05:26Z</time>
      </trkpt>
      <trkpt lat="47.30925" lon="-1.9756">
        <ele>8</ele>
        <time>2014-09-25T11:05:41Z</time>
      </trkpt>
      <trkpt lat="47.30914" lon="-1.97545">
        <ele>6</ele>
        <time>2014-09-25T11:05:52Z</time>
      </trkpt>
      <trkpt lat="47.30902" lon="-1.97533">
        <ele>4</ele>
        <time>2014-09-25T11:06:04Z</time>
      </trkpt>
      <trkpt lat="47.30892" lon="-1.97518">
        <ele>5</ele>
        <time>2014-09-25T11:06:16Z</time>
      </trkpt>
      <trkpt lat="47.30879" lon="-1.97508">
        <ele>4</ele>
        <time>2014-09-25T11:06:28Z</time>
      </trkpt>
      <trkpt lat="47.30866" lon="-1.97498">
        <ele>3</ele>
        <time>2014-09-25T11:06:40Z</time>
      </trkpt>
      <trkpt lat="47.30855" lon="-1.97485">
        <ele>4</ele>
        <time>2014-09-25T11:06:53Z</time>
      </trkpt>
      <trkpt lat="47.30843" lon="-1.97473">
        <ele>3</ele>
        <time>2014-09-25T11:07:03Z</time>
      </trkpt>
      <trkpt lat="47.3083" lon="-1.97463">
        <ele>3</ele>
        <time>2014-09-25T11:07:12Z</time>
      </trkpt>
      <trkpt lat="47.30818" lon="-1.97452">
        <ele>2</ele>
        <time>2014-09-25T11:07:33Z</time>
      </trkpt>
      <trkpt lat="47.30811" lon="-1.97435">
        <ele>3</ele>
        <time>2014-09-25T11:07:42Z</time>
      </trkpt>
      <trkpt lat="47.30802" lon="-1.97418">
        <ele>2</ele>
        <time>2014-09-25T11:07:51Z</time>
      </trkpt>
      <trkpt lat="47.30791" lon="-1.97404">
        <ele>1</ele>
        <time>2014-09-25T11:08:00Z</time>
      </trkpt>
      <trkpt lat="47.3078" lon="-1.97389">
        <ele>3.9</ele>
        <time>2014-09-25T11:08:10Z</time>
      </trkpt>
      <trkpt lat="47.30769" lon="-1.97378">
        <ele>1</ele>
        <time>2014-09-25T11:08:19Z</time>
      </trkpt>
      <trkpt lat="47.30758" lon="-1.97364">
        <ele>1</ele>
        <time>2014-09-25T11:08:33Z</time>
      </trkpt>
      <trkpt lat="47.30746" lon="-1.9735">
        <ele>-1</ele>
        <time>2014-09-25T11:08:42Z</time>
      </trkpt>
      <trkpt lat="47.30735" lon="-1.97339">
        <ele>-1</ele>
        <time>2014-09-25T11:08:52Z</time>
      </trkpt>
      <trkpt lat="47.30722" lon="-1.97326">
        <ele>-1</ele>
        <time>2014-09-25T11:09:01Z</time>
      </trkpt>
      <trkpt lat="47.30714" lon="-1.97308">
        <ele>3.1</ele>
        <time>2014-09-25T11:09:11Z</time>
      </trkpt>
      <trkpt lat="47.30708" lon="-1.97289">
        <ele>3</ele>
        <time>2014-09-25T11:09:20Z</time>
      </trkpt>
      <trkpt lat="47.30703" lon="-1.97268">
        <ele>3</ele>
        <time>2014-09-25T11:09:31Z</time>
      </trkpt>
      <trkpt lat="47.30698" lon="-1.97248">
        <ele>5</ele>
        <time>2014-09-25T11:09:42Z</time>
      </trkpt>
      <trkpt lat="47.30685" lon="-1.97236">
        <ele>4</ele>
        <time>2014-09-25T11:09:57Z</time>
      </trkpt>
      <trkpt lat="47.30679" lon="-1.97217">
        <ele>5</ele>
        <time>2014-09-25T11:10:12Z</time>
      </trkpt>
      <trkpt lat="47.30676" lon="-1.97198">
        <ele>4</ele>
        <time>2014-09-25T11:10:23Z</time>
      </trkpt>
      <trkpt lat="47.30671" lon="-1.97179">
        <ele>4</ele>
        <time>2014-09-25T11:10:34Z</time>
      </trkpt>
      <trkpt lat="47.30664" lon="-1.97161">
        <ele>2</ele>
        <time>2014-09-25T11:10:46Z</time>
      </trkpt>
      <trkpt lat="47.3066" lon="-1.97141">
        <ele>3</ele>
        <time>2014-09-25T11:10:56Z</time>
      </trkpt>
      <trkpt lat="47.30657" lon="-1.9712">
        <ele>5</ele>
        <time>2014-09-25T11:11:10Z</time>
      </trkpt>
      <trkpt lat="47.3065" lon="-1.97103">
        <ele>5</ele>
        <time>2014-09-25T11:11:22Z</time>
      </trkpt>
      <trkpt lat="47.30646" lon="-1.97084">
        <ele>4</ele>
        <time>2014-09-25T11:11:31Z</time>
      </trkpt>
      <trkpt lat="47.30642" lon="-1.97064">
        <ele>5</ele>
        <time>2014-09-25T11:11:38Z</time>
      </trkpt>
      <trkpt lat="47.30637" lon="-1.97044">
        <ele>4</ele>
        <time>2014-09-25T11:11:52Z</time>
      </trkpt>
      <trkpt lat="47.30633" lon="-1.97024">
        <ele>4</ele>
        <time>2014-09-25T11:12:04Z</time>
      </trkpt>
      <trkpt lat="47.30632" lon="-1.97003">
        <ele>4</ele>
        <time>2014-09-25T11:12:17Z</time>
      </trkpt>
      <trkpt lat="47.30624" lon="-1.96985">
        <ele>5</ele>
        <time>2014-09-25T11:12:32Z</time>
      </trkpt>
      <trkpt lat="47.30617" lon="-1.96967">
        <ele>4</ele>
        <time>2014-09-25T11:12:45Z</time>
      </trkpt>
      <trkpt lat="47.30608" lon="-1.96951">
        <ele>4</ele>
        <time>2014-09-25T11:12:55Z</time>
      </trkpt>
      <trkpt lat="47.30603" lon="-1.96931">
        <ele>1</ele>
        <time>2014-09-25T11:13:08Z</time>
      </trkpt>
      <trkpt lat="47.30596" lon="-1.96913">
        <ele>-3</ele>
        <time>2014-09-25T11:13:19Z</time>
      </trkpt>
      <trkpt lat="47.3059" lon="-1.96893">
        <ele>-2</ele>
        <time>2014-09-25T11:13:34Z</time>
      </trkpt>
      <trkpt lat="47.30584" lon="-1.96874">
        <ele>1</ele>
        <time>2014-09-25T11:13:47Z</time>
      </trkpt>
      <trkpt lat="47.30593" lon="-1.96859">
        <ele>-2</ele>
        <time>2014-09-25T11:14:15Z</time>
      </trkpt>
      <trkpt lat="47.30601" lon="-1.96843">
        <ele>4</ele>
        <time>2014-09-25T11:14:28Z</time>
      </trkpt>
      <trkpt lat="47.30604" lon="-1.96823">
        <ele>6</ele>
        <time>2014-09-25T11:14:40Z</time>
      </trkpt>
      <trkpt lat="47.30606" lon="-1.96803">
        <ele>6</ele>
        <time>2014-09-25T11:14:58Z</time>
      </trkpt>
      <trkpt lat="47.30598" lon="-1.96786">
        <ele>4</ele>
        <time>2014-09-25T11:15:11Z</time>
      </trkpt>
      <trkpt lat="47.30585" lon="-1.96777">
        <ele>2</ele>
        <time>2014-09-25T11:15:22Z</time>
      </trkpt>
      <trkpt lat="47.30571" lon="-1.9677">
        <ele>2</ele>
        <time>2014-09-25T11:15:31Z</time>
      </trkpt>
      <trkpt lat="47.30557" lon="-1.96763">
        <ele>1</ele>
        <time>2014-09-25T11:15:41Z</time>
      </trkpt>
      <trkpt lat="47.30547" lon="-1.96749">
        <ele>2</ele>
        <time>2014-09-25T11:15:55Z</time>
      </trkpt>
      <trkpt lat="47.30541" lon="-1.96731">
        <ele>3</ele>
        <time>2014-09-25T11:16:11Z</time>
      </trkpt>
      <trkpt lat="47.30532" lon="-1.96714">
        <ele>2</ele>
        <time>2014-09-25T11:16:24Z</time>
      </trkpt>
      <trkpt lat="47.30522" lon="-1.967">
        <ele>4</ele>
        <time>2014-09-25T11:16:36Z</time>
      </trkpt>
      <trkpt lat="47.30512" lon="-1.96685">
        <ele>2</ele>
        <time>2014-09-25T11:16:49Z</time>
      </trkpt>
      <trkpt lat="47.30506" lon="-1.96666">
        <ele>5</ele>
        <time>2014-09-25T11:17:04Z</time>
      </trkpt>
      <trkpt lat="47.30502" lon="-1.96647">
        <ele>2</ele>
        <time>2014-09-25T11:17:20Z</time>
      </trkpt>
      <trkpt lat="47.30504" lon="-1.96627">
        <ele>6</ele>
        <time>2014-09-25T11:18:19Z</time>
      </trkpt>
      <trkpt lat="47.30501" lon="-1.96607">
        <ele>10</ele>
        <time>2014-09-25T11:18:29Z</time>
      </trkpt>
      <trkpt lat="47.305" lon="-1.96586">
        <ele>11</ele>
        <time>2014-09-25T11:18:43Z</time>
      </trkpt>
      <trkpt lat="47.30502" lon="-1.96566">
        <ele>13</ele>
        <time>2014-09-25T11:18:52Z</time>
      </trkpt>
      <trkpt lat="47.30505" lon="-1.96545">
        <ele>12</ele>
        <time>2014-09-25T11:19:04Z</time>
      </trkpt>
      <trkpt lat="47.30508" lon="-1.96525">
        <ele>14</ele>
        <time>2014-09-25T11:19:13Z</time>
      </trkpt>
      <trkpt lat="47.30513" lon="-1.96506">
        <ele>16</ele>
        <time>2014-09-25T11:19:22Z</time>
      </trkpt>
      <trkpt lat="47.30519" lon="-1.96487">
        <ele>9</ele>
        <time>2014-09-25T11:19:52Z</time>
      </trkpt>
      <trkpt lat="47.30526" lon="-1.96468">
        <ele>11</ele>
        <time>2014-09-25T11:20:06Z</time>
      </trkpt>
      <trkpt lat="47.30534" lon="-1.96453">
        <ele>9</ele>
        <time>2014-09-25T11:20:17Z</time>
      </trkpt>
      <trkpt lat="47.30545" lon="-1.96439">
        <ele>9</ele>
        <time>2014-09-25T11:20:28Z</time>
      </trkpt>
      <trkpt lat="47.30554" lon="-1.96438">
        <ele>-4</ele>
        <time>2014-09-25T11:20:53Z</time>
      </trkpt>
      <trkpt lat="47.29439" lon="-1.98218">
        <ele>4.9976916313171</ele>
        <time>2014-09-25T12:11:35Z</time>
      </trkpt>
      <trkpt lat="47.29439" lon="-1.98218">
        <ele>4.9976916313171</ele>
        <time>2014-09-25T12:11:38Z</time>
      </trkpt>
      <trkpt lat="47.30497" lon="-1.96653">
        <ele>-17</ele>
        <time>2014-09-25T12:11:42Z</time>
      </trkpt>
      <trkpt lat="47.30484" lon="-1.96666">
        <ele>-8</ele>
        <time>2014-09-25T12:12:14Z</time>
      </trkpt>
      <trkpt lat="47.30435" lon="-1.96655">
        <ele>-3</ele>
        <time>2014-09-25T12:12:53Z</time>
      </trkpt>
      <trkpt lat="47.3042" lon="-1.96653">
        <ele>-1</ele>
        <time>2014-09-25T12:13:03Z</time>
      </trkpt>
      <trkpt lat="47.30406" lon="-1.96647">
        <ele>-2</ele>
        <time>2014-09-25T12:13:18Z</time>
      </trkpt>
      <trkpt lat="47.30393" lon="-1.96643">
        <ele>1</ele>
        <time>2014-09-25T12:13:29Z</time>
      </trkpt>
      <trkpt lat="47.30379" lon="-1.9664">
        <ele>-1</ele>
        <time>2014-09-25T12:13:39Z</time>
      </trkpt>
      <trkpt lat="47.30365" lon="-1.96641">
        <ele>3</ele>
        <time>2014-09-25T12:13:50Z</time>
      </trkpt>
      <trkpt lat="47.30351" lon="-1.96638">
        <ele>2</ele>
        <time>2014-09-25T12:13:59Z</time>
      </trkpt>
      <trkpt lat="47.30336" lon="-1.96637">
        <ele>1</ele>
        <time>2014-09-25T12:14:11Z</time>
      </trkpt>
      <trkpt lat="47.30322" lon="-1.96636">
        <ele>1</ele>
        <time>2014-09-25T12:14:26Z</time>
      </trkpt>
      <trkpt lat="47.30307" lon="-1.96635">
        <ele>2</ele>
        <time>2014-09-25T12:14:37Z</time>
      </trkpt>
      <trkpt lat="47.30294" lon="-1.96632">
        <ele>2</ele>
        <time>2014-09-25T12:14:47Z</time>
      </trkpt>
      <trkpt lat="47.30279" lon="-1.96627">
        <ele>2</ele>
        <time>2014-09-25T12:14:59Z</time>
      </trkpt>
      <trkpt lat="47.30266" lon="-1.96624">
        <ele>1</ele>
        <time>2014-09-25T12:15:12Z</time>
      </trkpt>
      <trkpt lat="47.30252" lon="-1.96623">
        <ele>1</ele>
        <time>2014-09-25T12:15:22Z</time>
      </trkpt>
      <trkpt lat="47.30239" lon="-1.96622">
        <ele>2</ele>
        <time>2014-09-25T12:15:32Z</time>
      </trkpt>
      <trkpt lat="47.30224" lon="-1.9662">
        <ele>3</ele>
        <time>2014-09-25T12:15:44Z</time>
      </trkpt>
      <trkpt lat="47.30209" lon="-1.9662">
        <ele>2</ele>
        <time>2014-09-25T12:15:59Z</time>
      </trkpt>
      <trkpt lat="47.30195" lon="-1.96616">
        <ele>1</ele>
        <time>2014-09-25T12:16:11Z</time>
      </trkpt>
      <trkpt lat="47.30182" lon="-1.96624">
        <ele>1</ele>
        <time>2014-09-25T12:16:22Z</time>
      </trkpt>
      <trkpt lat="47.30196" lon="-1.96615">
        <ele>3</ele>
        <time>2014-09-25T12:17:12Z</time>
      </trkpt>
      <trkpt lat="47.30211" lon="-1.96618">
        <ele>3</ele>
        <time>2014-09-25T12:17:29Z</time>
      </trkpt>
      <trkpt lat="47.30225" lon="-1.96618">
        <ele>-2</ele>
        <time>2014-09-25T12:17:44Z</time>
      </trkpt>
      <trkpt lat="47.30239" lon="-1.96619">
        <ele>-3</ele>
        <time>2014-09-25T12:17:54Z</time>
      </trkpt>
      <trkpt lat="47.30253" lon="-1.9662">
        <ele>-2</ele>
        <time>2014-09-25T12:18:05Z</time>
      </trkpt>
      <trkpt lat="47.30266" lon="-1.96622">
        <ele>-1</ele>
        <time>2014-09-25T12:18:16Z</time>
      </trkpt>
      <trkpt lat="47.30281" lon="-1.96625">
        <ele>3</ele>
        <time>2014-09-25T12:18:27Z</time>
      </trkpt>
      <trkpt lat="47.30295" lon="-1.96627">
        <ele>3</ele>
        <time>2014-09-25T12:18:39Z</time>
      </trkpt>
      <trkpt lat="47.30309" lon="-1.96629">
        <ele>1</ele>
        <time>2014-09-25T12:18:52Z</time>
      </trkpt>
      <trkpt lat="47.30323" lon="-1.96632">
        <ele>3</ele>
        <time>2014-09-25T12:19:04Z</time>
      </trkpt>
      <trkpt lat="47.30338" lon="-1.96635">
        <ele>6</ele>
        <time>2014-09-25T12:19:16Z</time>
      </trkpt>
      <trkpt lat="47.30352" lon="-1.96638">
        <ele>7</ele>
        <time>2014-09-25T12:19:27Z</time>
      </trkpt>
      <trkpt lat="47.30366" lon="-1.96639">
        <ele>3</ele>
        <time>2014-09-25T12:19:41Z</time>
      </trkpt>
      <trkpt lat="47.3038" lon="-1.96641">
        <ele>4</ele>
        <time>2014-09-25T12:19:53Z</time>
      </trkpt>
      <trkpt lat="47.30394" lon="-1.96645">
        <ele>5</ele>
        <time>2014-09-25T12:20:06Z</time>
      </trkpt>
      <trkpt lat="47.30408" lon="-1.96647">
        <ele>7</ele>
        <time>2014-09-25T12:20:16Z</time>
      </trkpt>
      <trkpt lat="47.30422" lon="-1.96649">
        <ele>8</ele>
        <time>2014-09-25T12:20:29Z</time>
      </trkpt>
      <trkpt lat="47.30436" lon="-1.96651">
        <ele>8</ele>
        <time>2014-09-25T12:20:40Z</time>
      </trkpt>
      <trkpt lat="47.3045" lon="-1.96653">
        <ele>11</ele>
        <time>2014-09-25T12:20:51Z</time>
      </trkpt>
      <trkpt lat="47.30464" lon="-1.96652">
        <ele>10</ele>
        <time>2014-09-25T12:21:06Z</time>
      </trkpt>
      <trkpt lat="47.30477" lon="-1.96656">
        <ele>13</ele>
        <time>2014-09-25T12:21:25Z</time>
      </trkpt>
      <trkpt lat="47.30492" lon="-1.96657">
        <ele>6</ele>
        <time>2014-09-25T12:21:40Z</time>
      </trkpt>
      <trkpt lat="47.30502" lon="-1.96674">
        <ele>6</ele>
        <time>2014-09-25T12:21:54Z</time>
      </trkpt>
      <trkpt lat="47.30511" lon="-1.96692">
        <ele>8</ele>
        <time>2014-09-25T12:22:01Z</time>
      </trkpt>
      <trkpt lat="47.3052" lon="-1.96707">
        <ele>9</ele>
        <time>2014-09-25T12:22:12Z</time>
      </trkpt>
      <trkpt lat="47.3053" lon="-1.96723">
        <ele>9</ele>
        <time>2014-09-25T12:22:24Z</time>
      </trkpt>
      <trkpt lat="47.3054" lon="-1.96738">
        <ele>10</ele>
        <time>2014-09-25T12:22:35Z</time>
      </trkpt>
      <trkpt lat="47.30548" lon="-1.96754">
        <ele>8</ele>
        <time>2014-09-25T12:22:46Z</time>
      </trkpt>
      <trkpt lat="47.30561" lon="-1.96763">
        <ele>10</ele>
        <time>2014-09-25T12:23:02Z</time>
      </trkpt>
      <trkpt lat="47.30572" lon="-1.96776">
        <ele>10</ele>
        <time>2014-09-25T12:23:14Z</time>
      </trkpt>
      <trkpt lat="47.30585" lon="-1.96785">
        <ele>8</ele>
        <time>2014-09-25T12:23:27Z</time>
      </trkpt>
      <trkpt lat="47.30594" lon="-1.96801">
        <ele>5</ele>
        <time>2014-09-25T12:23:42Z</time>
      </trkpt>
      <trkpt lat="47.30599" lon="-1.9682">
        <ele>6</ele>
        <time>2014-09-25T12:23:49Z</time>
      </trkpt>
      <trkpt lat="47.30599" lon="-1.9684">
        <ele>3</ele>
        <time>2014-09-25T12:24:02Z</time>
      </trkpt>
      <trkpt lat="47.30596" lon="-1.96861">
        <ele>3</ele>
        <time>2014-09-25T12:24:16Z</time>
      </trkpt>
      <trkpt lat="47.30592" lon="-1.96882">
        <ele>1</ele>
        <time>2014-09-25T12:24:32Z</time>
      </trkpt>
      <trkpt lat="47.30599" lon="-1.969">
        <ele>-1</ele>
        <time>2014-09-25T12:24:46Z</time>
      </trkpt>
      <trkpt lat="47.30602" lon="-1.96919">
        <ele>-1</ele>
        <time>2014-09-25T12:24:57Z</time>
      </trkpt>
      <trkpt lat="47.30609" lon="-1.96937">
        <ele>-1</ele>
        <time>2014-09-25T12:25:06Z</time>
      </trkpt>
      <trkpt lat="47.30618" lon="-1.96955">
        <ele>3.2</ele>
        <time>2014-09-25T12:25:17Z</time>
      </trkpt>
      <trkpt lat="47.30628" lon="-1.96969">
        <ele>1</ele>
        <time>2014-09-25T12:25:32Z</time>
      </trkpt>
      <trkpt lat="47.30631" lon="-1.96988">
        <ele>2</ele>
        <time>2014-09-25T12:25:43Z</time>
      </trkpt>
      <trkpt lat="47.30636" lon="-1.97008">
        <ele>3.9</ele>
        <time>2014-09-25T12:25:54Z</time>
      </trkpt>
      <trkpt lat="47.30638" lon="-1.97029">
        <ele>-2</ele>
        <time>2014-09-25T12:26:06Z</time>
      </trkpt>
      <trkpt lat="47.30643" lon="-1.97049">
        <ele>-2</ele>
        <time>2014-09-25T12:26:19Z</time>
      </trkpt>
      <trkpt lat="47.30648" lon="-1.97068">
        <ele>3</ele>
        <time>2014-09-25T12:26:30Z</time>
      </trkpt>
      <trkpt lat="47.30653" lon="-1.97087">
        <ele>-1</ele>
        <time>2014-09-25T12:26:44Z</time>
      </trkpt>
      <trkpt lat="47.30657" lon="-1.97108">
        <ele>2</ele>
        <time>2014-09-25T12:26:55Z</time>
      </trkpt>
      <trkpt lat="47.30662" lon="-1.97128">
        <ele>3.8</ele>
        <time>2014-09-25T12:27:07Z</time>
      </trkpt>
      <trkpt lat="47.30667" lon="-1.97147">
        <ele>-1</ele>
        <time>2014-09-25T12:27:18Z</time>
      </trkpt>
      <trkpt lat="47.30673" lon="-1.97167">
        <ele>-3</ele>
        <time>2014-09-25T12:27:31Z</time>
      </trkpt>
      <trkpt lat="47.30677" lon="-1.97188">
        <ele>1</ele>
        <time>2014-09-25T12:27:41Z</time>
      </trkpt>
      <trkpt lat="47.30681" lon="-1.97207">
        <ele>3</ele>
        <time>2014-09-25T12:27:51Z</time>
      </trkpt>
      <trkpt lat="47.30686" lon="-1.97226">
        <ele>5</ele>
        <time>2014-09-25T12:28:02Z</time>
      </trkpt>
      <trkpt lat="47.30683" lon="-1.97246">
        <ele>5</ele>
        <time>2014-09-25T12:28:12Z</time>
      </trkpt>
      <trkpt lat="47.30669" lon="-1.97246">
        <ele>4</ele>
        <time>2014-09-25T12:28:20Z</time>
      </trkpt>
      <trkpt lat="47.30655" lon="-1.97249">
        <ele>5</ele>
        <time>2014-09-25T12:28:31Z</time>
      </trkpt>
      <trkpt lat="47.30642" lon="-1.97252">
        <ele>4</ele>
        <time>2014-09-25T12:28:45Z</time>
      </trkpt>
      <trkpt lat="47.30628" lon="-1.97255">
        <ele>5</ele>
        <time>2014-09-25T12:29:01Z</time>
      </trkpt>
      <trkpt lat="47.30612" lon="-1.97258">
        <ele>4</ele>
        <time>2014-09-25T12:29:08Z</time>
      </trkpt>
      <trkpt lat="47.30598" lon="-1.97251">
        <ele>7</ele>
        <time>2014-09-25T12:29:28Z</time>
      </trkpt>
      <trkpt lat="47.30585" lon="-1.97259">
        <ele>7</ele>
        <time>2014-09-25T12:29:36Z</time>
      </trkpt>
      <trkpt lat="47.30571" lon="-1.97262">
        <ele>5</ele>
        <time>2014-09-25T12:29:45Z</time>
      </trkpt>
      <trkpt lat="47.30557" lon="-1.97263">
        <ele>8</ele>
        <time>2014-09-25T12:29:59Z</time>
      </trkpt>
      <trkpt lat="47.30543" lon="-1.97264">
        <ele>6</ele>
        <time>2014-09-25T12:30:12Z</time>
      </trkpt>
      <trkpt lat="47.3053" lon="-1.97261">
        <ele>4</ele>
        <time>2014-09-25T12:30:22Z</time>
      </trkpt>
      <trkpt lat="47.30516" lon="-1.97265">
        <ele>4</ele>
        <time>2014-09-25T12:30:36Z</time>
      </trkpt>
      <trkpt lat="47.30502" lon="-1.9727">
        <ele>10</ele>
        <time>2014-09-25T12:30:48Z</time>
      </trkpt>
      <trkpt lat="47.30488" lon="-1.97264">
        <ele>8</ele>
        <time>2014-09-25T12:31:06Z</time>
      </trkpt>
      <trkpt lat="47.30474" lon="-1.97269">
        <ele>8</ele>
        <time>2014-09-25T12:31:19Z</time>
      </trkpt>
      <trkpt lat="47.30459" lon="-1.9727">
        <ele>6</ele>
        <time>2014-09-25T12:31:30Z</time>
      </trkpt>
      <trkpt lat="47.30446" lon="-1.9727">
        <ele>3</ele>
        <time>2014-09-25T12:31:45Z</time>
      </trkpt>
      <trkpt lat="47.30432" lon="-1.9727">
        <ele>2</ele>
        <time>2014-09-25T12:31:55Z</time>
      </trkpt>
      <trkpt lat="47.30417" lon="-1.97271">
        <ele>2</ele>
        <time>2014-09-25T12:32:06Z</time>
      </trkpt>
      <trkpt lat="47.30403" lon="-1.97274">
        <ele>-1</ele>
        <time>2014-09-25T12:32:17Z</time>
      </trkpt>
      <trkpt lat="47.30388" lon="-1.97272">
        <ele>-4</ele>
        <time>2014-09-25T12:32:30Z</time>
      </trkpt>
      <trkpt lat="47.30375" lon="-1.97271">
        <ele>-3</ele>
        <time>2014-09-25T12:32:42Z</time>
      </trkpt>
      <trkpt lat="47.30361" lon="-1.97269">
        <ele>-2</ele>
        <time>2014-09-25T12:32:57Z</time>
      </trkpt>
      <trkpt lat="47.30346" lon="-1.9727">
        <ele>3</ele>
        <time>2014-09-25T12:33:09Z</time>
      </trkpt>
      <trkpt lat="47.30332" lon="-1.97272">
        <ele>3</ele>
        <time>2014-09-25T12:33:19Z</time>
      </trkpt>
      <trkpt lat="47.30318" lon="-1.9727">
        <ele>6</ele>
        <time>2014-09-25T12:33:33Z</time>
      </trkpt>
      <trkpt lat="47.30304" lon="-1.9727">
        <ele>6</ele>
        <time>2014-09-25T12:33:43Z</time>
      </trkpt>
      <trkpt lat="47.30291" lon="-1.97275">
        <ele>5</ele>
        <time>2014-09-25T12:33:56Z</time>
      </trkpt>
      <trkpt lat="47.30276" lon="-1.97274">
        <ele>6</ele>
        <time>2014-09-25T12:34:08Z</time>
      </trkpt>
      <trkpt lat="47.30262" lon="-1.97274">
        <ele>3</ele>
        <time>2014-09-25T12:34:21Z</time>
      </trkpt>
      <trkpt lat="47.30248" lon="-1.97273">
        <ele>-1</ele>
        <time>2014-09-25T12:34:32Z</time>
      </trkpt>
      <trkpt lat="47.30234" lon="-1.97273">
        <ele>-2</ele>
        <time>2014-09-25T12:34:44Z</time>
      </trkpt>
      <trkpt lat="47.3022" lon="-1.97273">
        <ele>-5</ele>
        <time>2014-09-25T12:34:55Z</time>
      </trkpt>
      <trkpt lat="47.30205" lon="-1.97274">
        <ele>-2</ele>
        <time>2014-09-25T12:35:07Z</time>
      </trkpt>
      <trkpt lat="47.30191" lon="-1.97274">
        <ele>-1</ele>
        <time>2014-09-25T12:35:17Z</time>
      </trkpt>
      <trkpt lat="47.30177" lon="-1.97271">
        <ele>-2</ele>
        <time>2014-09-25T12:35:29Z</time>
      </trkpt>
      <trkpt lat="47.30163" lon="-1.97269">
        <ele>-2</ele>
        <time>2014-09-25T12:35:45Z</time>
      </trkpt>
      <trkpt lat="47.30148" lon="-1.97272">
        <ele>-4</ele>
        <time>2014-09-25T12:35:59Z</time>
      </trkpt>
      <trkpt lat="47.30134" lon="-1.97273">
        <ele>-4</ele>
        <time>2014-09-25T12:36:09Z</time>
      </trkpt>
      <trkpt lat="47.3012" lon="-1.97273">
        <ele>-3</ele>
        <time>2014-09-25T12:36:22Z</time>
      </trkpt>
      <trkpt lat="47.30106" lon="-1.97277">
        <ele>-3</ele>
        <time>2014-09-25T12:36:32Z</time>
      </trkpt>
      <trkpt lat="47.30092" lon="-1.97278">
        <ele>-4</ele>
        <time>2014-09-25T12:36:43Z</time>
      </trkpt>
      <trkpt lat="47.30078" lon="-1.97279">
        <ele>-4</ele>
        <time>2014-09-25T12:36:55Z</time>
      </trkpt>
      <trkpt lat="47.30064" lon="-1.97276">
        <ele>-3</ele>
        <time>2014-09-25T12:37:09Z</time>
      </trkpt>
      <trkpt lat="47.30051" lon="-1.97276">
        <ele>-3</ele>
        <time>2014-09-25T12:37:18Z</time>
      </trkpt>
      <trkpt lat="47.30036" lon="-1.97275">
        <ele>-1</ele>
        <time>2014-09-25T12:37:33Z</time>
      </trkpt>
      <trkpt lat="47.30023" lon="-1.97275">
        <ele>2.3</ele>
        <time>2014-09-25T12:37:45Z</time>
      </trkpt>
      <trkpt lat="47.30008" lon="-1.97276">
        <ele>3</ele>
        <time>2014-09-25T12:37:56Z</time>
      </trkpt>
      <trkpt lat="47.29994" lon="-1.97277">
        <ele>-1</ele>
        <time>2014-09-25T12:38:08Z</time>
      </trkpt>
      <trkpt lat="47.2998" lon="-1.97278">
        <ele>-3</ele>
        <time>2014-09-25T12:38:19Z</time>
      </trkpt>
      <trkpt lat="47.29965" lon="-1.97281">
        <ele>-3</ele>
        <time>2014-09-25T12:38:30Z</time>
      </trkpt>
      <trkpt lat="47.29951" lon="-1.97281">
        <ele>-2</ele>
        <time>2014-09-25T12:38:40Z</time>
      </trkpt>
      <trkpt lat="47.29937" lon="-1.9728">
        <ele>3</ele>
        <time>2014-09-25T12:38:54Z</time>
      </trkpt>
      <trkpt lat="47.29923" lon="-1.9728">
        <ele>2</ele>
        <time>2014-09-25T12:39:07Z</time>
      </trkpt>
      <trkpt lat="47.29909" lon="-1.97277">
        <ele>5</ele>
        <time>2014-09-25T12:39:18Z</time>
      </trkpt>
      <trkpt lat="47.29895" lon="-1.97276">
        <ele>6</ele>
        <time>2014-09-25T12:39:33Z</time>
      </trkpt>
      <trkpt lat="47.29881" lon="-1.97272">
        <ele>5</ele>
        <time>2014-09-25T12:39:50Z</time>
      </trkpt>
      <trkpt lat="47.2987" lon="-1.9726">
        <ele>4</ele>
        <time>2014-09-25T12:39:59Z</time>
      </trkpt>
      <trkpt lat="47.29859" lon="-1.97246">
        <ele>3</ele>
        <time>2014-09-25T12:40:11Z</time>
      </trkpt>
      <trkpt lat="47.29845" lon="-1.97243">
        <ele>6</ele>
        <time>2014-09-25T12:40:24Z</time>
      </trkpt>
      <trkpt lat="47.29831" lon="-1.97246">
        <ele>6</ele>
        <time>2014-09-25T12:40:37Z</time>
      </trkpt>
      <trkpt lat="47.29816" lon="-1.9725">
        <ele>4</ele>
        <time>2014-09-25T12:40:48Z</time>
      </trkpt>
      <trkpt lat="47.29806" lon="-1.97234">
        <ele>2</ele>
        <time>2014-09-25T12:41:01Z</time>
      </trkpt>
      <trkpt lat="47.2981" lon="-1.97214">
        <ele>6</ele>
        <time>2014-09-25T12:41:25Z</time>
      </trkpt>
      <trkpt lat="47.29816" lon="-1.97194">
        <ele>4</ele>
        <time>2014-09-25T12:42:31Z</time>
      </trkpt>
      <trkpt lat="47.29814" lon="-1.97214">
        <ele>2</ele>
        <time>2014-09-25T12:44:09Z</time>
      </trkpt>
      <trkpt lat="47.29804" lon="-1.97228">
        <ele>7</ele>
        <time>2014-09-25T12:44:26Z</time>
      </trkpt>
      <trkpt lat="47.29811" lon="-1.97245">
        <ele>5</ele>
        <time>2014-09-25T12:44:43Z</time>
      </trkpt>
      <trkpt lat="47.29825" lon="-1.97247">
        <ele>2</ele>
        <time>2014-09-25T12:44:58Z</time>
      </trkpt>
      <trkpt lat="47.29839" lon="-1.97248">
        <ele>3</ele>
        <time>2014-09-25T12:45:13Z</time>
      </trkpt>
      <trkpt lat="47.29853" lon="-1.97248">
        <ele>2</ele>
        <time>2014-09-25T12:45:26Z</time>
      </trkpt>
      <trkpt lat="47.29866" lon="-1.97257">
        <ele>3</ele>
        <time>2014-09-25T12:45:39Z</time>
      </trkpt>
      <trkpt lat="47.29877" lon="-1.97269">
        <ele>4</ele>
        <time>2014-09-25T12:45:52Z</time>
      </trkpt>
      <trkpt lat="47.29891" lon="-1.97276">
        <ele>5</ele>
        <time>2014-09-25T12:46:05Z</time>
      </trkpt>
      <trkpt lat="47.29905" lon="-1.97282">
        <ele>5</ele>
        <time>2014-09-25T12:46:18Z</time>
      </trkpt>
      <trkpt lat="47.29919" lon="-1.97281">
        <ele>4</ele>
        <time>2014-09-25T12:46:31Z</time>
      </trkpt>
      <trkpt lat="47.29933" lon="-1.97282">
        <ele>4</ele>
        <time>2014-09-25T12:46:43Z</time>
      </trkpt>
      <trkpt lat="47.29947" lon="-1.9728">
        <ele>3</ele>
        <time>2014-09-25T12:47:01Z</time>
      </trkpt>
      <trkpt lat="47.29961" lon="-1.97279">
        <ele>4</ele>
        <time>2014-09-25T12:47:14Z</time>
      </trkpt>
      <trkpt lat="47.29975" lon="-1.9728">
        <ele>4</ele>
        <time>2014-09-25T12:47:27Z</time>
      </trkpt>
      <trkpt lat="47.29989" lon="-1.97279">
        <ele>5</ele>
        <time>2014-09-25T12:47:40Z</time>
      </trkpt>
      <trkpt lat="47.30003" lon="-1.97278">
        <ele>6</ele>
        <time>2014-09-25T12:47:53Z</time>
      </trkpt>
      <trkpt lat="47.30018" lon="-1.97279">
        <ele>6</ele>
        <time>2014-09-25T12:48:05Z</time>
      </trkpt>
      <trkpt lat="47.30032" lon="-1.97278">
        <ele>5</ele>
        <time>2014-09-25T12:48:19Z</time>
      </trkpt>
      <trkpt lat="47.30046" lon="-1.97277">
        <ele>5</ele>
        <time>2014-09-25T12:48:32Z</time>
      </trkpt>
      <trkpt lat="47.30059" lon="-1.97277">
        <ele>4</ele>
        <time>2014-09-25T12:48:44Z</time>
      </trkpt>
      <trkpt lat="47.30073" lon="-1.97276">
        <ele>4</ele>
        <time>2014-09-25T12:48:56Z</time>
      </trkpt>
      <trkpt lat="47.30087" lon="-1.97276">
        <ele>4</ele>
        <time>2014-09-25T12:49:10Z</time>
      </trkpt>
      <trkpt lat="47.30101" lon="-1.97275">
        <ele>3</ele>
        <time>2014-09-25T12:49:24Z</time>
      </trkpt>
      <trkpt lat="47.30115" lon="-1.97273">
        <ele>3</ele>
        <time>2014-09-25T12:49:43Z</time>
      </trkpt>
      <trkpt lat="47.30128" lon="-1.97272">
        <ele>3</ele>
        <time>2014-09-25T12:49:53Z</time>
      </trkpt>
      <trkpt lat="47.30142" lon="-1.97271">
        <ele>3</ele>
        <time>2014-09-25T12:50:06Z</time>
      </trkpt>
      <trkpt lat="47.30156" lon="-1.97272">
        <ele>3</ele>
        <time>2014-09-25T12:50:18Z</time>
      </trkpt>
      <trkpt lat="47.3017" lon="-1.97272">
        <ele>-1</ele>
        <time>2014-09-25T12:50:31Z</time>
      </trkpt>
      <trkpt lat="47.30184" lon="-1.97273">
        <ele>1</ele>
        <time>2014-09-25T12:50:43Z</time>
      </trkpt>
      <trkpt lat="47.30198" lon="-1.97272">
        <ele>-2</ele>
        <time>2014-09-25T12:50:54Z</time>
      </trkpt>
      <trkpt lat="47.30212" lon="-1.97273">
        <ele>-1</ele>
        <time>2014-09-25T12:51:03Z</time>
      </trkpt>
      <trkpt lat="47.30225" lon="-1.97273">
        <ele>1</ele>
        <time>2014-09-25T12:51:18Z</time>
      </trkpt>
      <trkpt lat="47.30239" lon="-1.97271">
        <ele>-1</ele>
        <time>2014-09-25T12:51:32Z</time>
      </trkpt>
      <trkpt lat="47.30254" lon="-1.97272">
        <ele>-1</ele>
        <time>2014-09-25T12:51:43Z</time>
      </trkpt>
      <trkpt lat="47.30269" lon="-1.9727">
        <ele>3</ele>
        <time>2014-09-25T12:51:56Z</time>
      </trkpt>
      <trkpt lat="47.30283" lon="-1.9727">
        <ele>-2</ele>
        <time>2014-09-25T12:52:10Z</time>
      </trkpt>
      <trkpt lat="47.30297" lon="-1.97271">
        <ele>-5</ele>
        <time>2014-09-25T12:52:22Z</time>
      </trkpt>
      <trkpt lat="47.30311" lon="-1.97271">
        <ele>-3</ele>
        <time>2014-09-25T12:52:32Z</time>
      </trkpt>
      <trkpt lat="47.30325" lon="-1.9727">
        <ele>-2</ele>
        <time>2014-09-25T12:52:42Z</time>
      </trkpt>
      <trkpt lat="47.30339" lon="-1.97269">
        <ele>-1</ele>
        <time>2014-09-25T12:52:53Z</time>
      </trkpt>
      <trkpt lat="47.30353" lon="-1.9727">
        <ele>1</ele>
        <time>2014-09-25T12:53:04Z</time>
      </trkpt>
      <trkpt lat="47.30366" lon="-1.97272">
        <ele>3</ele>
        <time>2014-09-25T12:53:16Z</time>
      </trkpt>
      <trkpt lat="47.30381" lon="-1.97271">
        <ele>3</ele>
        <time>2014-09-25T12:53:30Z</time>
      </trkpt>
      <trkpt lat="47.30395" lon="-1.97271">
        <ele>2</ele>
        <time>2014-09-25T12:53:41Z</time>
      </trkpt>
      <trkpt lat="47.3041" lon="-1.97269">
        <ele>1</ele>
        <time>2014-09-25T12:53:54Z</time>
      </trkpt>
      <trkpt lat="47.30424" lon="-1.9727">
        <ele>2</ele>
        <time>2014-09-25T12:54:08Z</time>
      </trkpt>
      <trkpt lat="47.30438" lon="-1.9727">
        <ele>3</ele>
        <time>2014-09-25T12:54:19Z</time>
      </trkpt>
      <trkpt lat="47.30452" lon="-1.9727">
        <ele>4</ele>
        <time>2014-09-25T12:54:30Z</time>
      </trkpt>
      <trkpt lat="47.30466" lon="-1.9727">
        <ele>2</ele>
        <time>2014-09-25T12:54:45Z</time>
      </trkpt>
      <trkpt lat="47.3048" lon="-1.97268">
        <ele>2</ele>
        <time>2014-09-25T12:54:56Z</time>
      </trkpt>
      <trkpt lat="47.30493" lon="-1.97271">
        <ele>1</ele>
        <time>2014-09-25T12:55:09Z</time>
      </trkpt>
      <trkpt lat="47.30507" lon="-1.97266">
        <ele>3</ele>
        <time>2014-09-25T12:55:24Z</time>
      </trkpt>
      <trkpt lat="47.30522" lon="-1.97266">
        <ele>3</ele>
        <time>2014-09-25T12:55:34Z</time>
      </trkpt>
      <trkpt lat="47.30535" lon="-1.97259">
        <ele>2</ele>
        <time>2014-09-25T12:55:43Z</time>
      </trkpt>
      <trkpt lat="47.30548" lon="-1.97251">
        <ele>2</ele>
        <time>2014-09-25T12:56:07Z</time>
      </trkpt>
      <trkpt lat="47.30562" lon="-1.97245">
        <ele>2</ele>
        <time>2014-09-25T12:56:19Z</time>
      </trkpt>
      <trkpt lat="47.30576" lon="-1.97243">
        <ele>1</ele>
        <time>2014-09-25T12:56:30Z</time>
      </trkpt>
      <trkpt lat="47.30588" lon="-1.97252">
        <ele>-1</ele>
        <time>2014-09-25T12:56:40Z</time>
      </trkpt>
      <trkpt lat="47.30593" lon="-1.97285">
        <ele>4</ele>
        <time>2014-09-25T12:56:46Z</time>
      </trkpt>
      <trkpt lat="47.30601" lon="-1.97266">
        <ele>3</ele>
        <time>2014-09-25T12:56:54Z</time>
      </trkpt>
      <trkpt lat="47.30614" lon="-1.97259">
        <ele>1</ele>
        <time>2014-09-25T12:57:04Z</time>
      </trkpt>
      <trkpt lat="47.30627" lon="-1.97251">
        <ele>1</ele>
        <time>2014-09-25T12:57:17Z</time>
      </trkpt>
      <trkpt lat="47.30641" lon="-1.97248">
        <ele>2</ele>
        <time>2014-09-25T12:57:28Z</time>
      </trkpt>
      <trkpt lat="47.30655" lon="-1.97248">
        <ele>4</ele>
        <time>2014-09-25T12:57:37Z</time>
      </trkpt>
      <trkpt lat="47.3067" lon="-1.97246">
        <ele>2</ele>
        <time>2014-09-25T12:57:52Z</time>
      </trkpt>
      <trkpt lat="47.30684" lon="-1.97241">
        <ele>7</ele>
        <time>2014-09-25T12:58:00Z</time>
      </trkpt>
      <trkpt lat="47.30687" lon="-1.97221">
        <ele>4</ele>
        <time>2014-09-25T12:58:16Z</time>
      </trkpt>
      <trkpt lat="47.30683" lon="-1.972">
        <ele>5</ele>
        <time>2014-09-25T12:58:34Z</time>
      </trkpt>
      <trkpt lat="47.30679" lon="-1.9718">
        <ele>6</ele>
        <time>2014-09-25T12:58:43Z</time>
      </trkpt>
      <trkpt lat="47.30675" lon="-1.9716">
        <ele>4</ele>
        <time>2014-09-25T12:58:56Z</time>
      </trkpt>
      <trkpt lat="47.30668" lon="-1.97143">
        <ele>4</ele>
        <time>2014-09-25T12:59:09Z</time>
      </trkpt>
      <trkpt lat="47.30659" lon="-1.97124">
        <ele>6</ele>
        <time>2014-09-25T12:59:18Z</time>
      </trkpt>
      <trkpt lat="47.30658" lon="-1.97104">
        <ele>3</ele>
        <time>2014-09-25T12:59:32Z</time>
      </trkpt>
      <trkpt lat="47.30654" lon="-1.97084">
        <ele>1</ele>
        <time>2014-09-25T12:59:47Z</time>
      </trkpt>
      <trkpt lat="47.3065" lon="-1.97065">
        <ele>3</ele>
        <time>2014-09-25T12:59:59Z</time>
      </trkpt>
      <trkpt lat="47.30644" lon="-1.97047">
        <ele>1</ele>
        <time>2014-09-25T13:00:09Z</time>
      </trkpt>
      <trkpt lat="47.3064" lon="-1.97027">
        <ele>-2</ele>
        <time>2014-09-25T13:00:20Z</time>
      </trkpt>
      <trkpt lat="47.30638" lon="-1.97007">
        <ele>4</ele>
        <time>2014-09-25T13:00:33Z</time>
      </trkpt>
      <trkpt lat="47.30633" lon="-1.96988">
        <ele>3</ele>
        <time>2014-09-25T13:00:50Z</time>
      </trkpt>
      <trkpt lat="47.30627" lon="-1.96968">
        <ele>3.6</ele>
        <time>2014-09-25T13:01:11Z</time>
      </trkpt>
      <trkpt lat="47.30619" lon="-1.96951">
        <ele>-2</ele>
        <time>2014-09-25T13:01:18Z</time>
      </trkpt>
      <trkpt lat="47.30609" lon="-1.96936">
        <ele>-2</ele>
        <time>2014-09-25T13:01:26Z</time>
      </trkpt>
      <trkpt lat="47.30603" lon="-1.96917">
        <ele>3.7</ele>
        <time>2014-09-25T13:01:39Z</time>
      </trkpt>
      <trkpt lat="47.30597" lon="-1.96899">
        <ele>3.8</ele>
        <time>2014-09-25T13:01:49Z</time>
      </trkpt>
      <trkpt lat="47.30592" lon="-1.96879">
        <ele>4</ele>
        <time>2014-09-25T13:02:03Z</time>
      </trkpt>
      <trkpt lat="47.30598" lon="-1.96861">
        <ele>2</ele>
        <time>2014-09-25T13:02:15Z</time>
      </trkpt>
      <trkpt lat="47.30602" lon="-1.9684">
        <ele>2</ele>
        <time>2014-09-25T13:02:26Z</time>
      </trkpt>
      <trkpt lat="47.30603" lon="-1.96819">
        <ele>4</ele>
        <time>2014-09-25T13:02:36Z</time>
      </trkpt>
      <trkpt lat="47.30605" lon="-1.96798">
        <ele>6</ele>
        <time>2014-09-25T13:02:48Z</time>
      </trkpt>
      <trkpt lat="47.30609" lon="-1.96779">
        <ele>7</ele>
        <time>2014-09-25T13:03:01Z</time>
      </trkpt>
      <trkpt lat="47.3061" lon="-1.96758">
        <ele>5</ele>
        <time>2014-09-25T13:03:14Z</time>
      </trkpt>
      <trkpt lat="47.30605" lon="-1.96739">
        <ele>4</ele>
        <time>2014-09-25T13:03:27Z</time>
      </trkpt>
      <trkpt lat="47.30599" lon="-1.96719">
        <ele>1</ele>
        <time>2014-09-25T13:03:38Z</time>
      </trkpt>
      <trkpt lat="47.30593" lon="-1.967">
        <ele>2</ele>
        <time>2014-09-25T13:03:52Z</time>
      </trkpt>
      <trkpt lat="47.30589" lon="-1.96679">
        <ele>2</ele>
        <time>2014-09-25T13:04:03Z</time>
      </trkpt>
      <trkpt lat="47.30587" lon="-1.96659">
        <ele>1</ele>
        <time>2014-09-25T13:04:15Z</time>
      </trkpt>
      <trkpt lat="47.30585" lon="-1.96639">
        <ele>5</ele>
        <time>2014-09-25T13:04:25Z</time>
      </trkpt>
      <trkpt lat="47.30578" lon="-1.96621">
        <ele>3</ele>
        <time>2014-09-25T13:04:42Z</time>
      </trkpt>
      <trkpt lat="47.3057" lon="-1.96605">
        <ele>1</ele>
        <time>2014-09-25T13:04:51Z</time>
      </trkpt>
      <trkpt lat="47.30562" lon="-1.96588">
        <ele>1</ele>
        <time>2014-09-25T13:05:02Z</time>
      </trkpt>
      <trkpt lat="47.30559" lon="-1.96569">
        <ele>2</ele>
        <time>2014-09-25T13:05:13Z</time>
      </trkpt>
      <trkpt lat="47.30555" lon="-1.96549">
        <ele>4</ele>
        <time>2014-09-25T13:05:24Z</time>
      </trkpt>
      <trkpt lat="47.30551" lon="-1.9653">
        <ele>1</ele>
        <time>2014-09-25T13:05:36Z</time>
      </trkpt>
      <trkpt lat="47.30545" lon="-1.9651">
        <ele>2</ele>
        <time>2014-09-25T13:05:46Z</time>
      </trkpt>
      <trkpt lat="47.30538" lon="-1.96491">
        <ele>4</ele>
        <time>2014-09-25T13:05:58Z</time>
      </trkpt>
      <trkpt lat="47.30534" lon="-1.96471">
        <ele>2</ele>
        <time>2014-09-25T13:06:11Z</time>
      </trkpt>
      <trkpt lat="47.30537" lon="-1.96451">
        <ele>4.1</ele>
        <time>2014-09-25T13:06:26Z</time>
      </trkpt>
      <trkpt lat="47.30545" lon="-1.96434">
        <ele>2</ele>
        <time>2014-09-25T13:06:41Z</time>
      </trkpt>
      <trkpt lat="47.30555" lon="-1.96419">
        <ele>1</ele>
        <time>2014-09-25T13:06:56Z</time>
      </trkpt>
      <trkpt lat="47.30565" lon="-1.96403">
        <ele>1</ele>
        <time>2014-09-25T13:07:09Z</time>
      </trkpt>
      <trkpt lat="47.30573" lon="-1.96385">
        <ele>5</ele>
        <time>2014-09-25T13:07:19Z</time>
      </trkpt>
      <trkpt lat="47.30579" lon="-1.96367">
        <ele>3</ele>
        <time>2014-09-25T13:07:29Z</time>
      </trkpt>
      <trkpt lat="47.30581" lon="-1.96347">
        <ele>3</ele>
        <time>2014-09-25T13:07:44Z</time>
      </trkpt>
      <trkpt lat="47.30583" lon="-1.96327">
        <ele>1</ele>
        <time>2014-09-25T13:07:57Z</time>
      </trkpt>
      <trkpt lat="47.30585" lon="-1.96306">
        <ele>3</ele>
        <time>2014-09-25T13:08:10Z</time>
      </trkpt>
      <trkpt lat="47.30587" lon="-1.96286">
        <ele>3</ele>
        <time>2014-09-25T13:08:24Z</time>
      </trkpt>
      <trkpt lat="47.30585" lon="-1.96265">
        <ele>3</ele>
        <time>2014-09-25T13:08:37Z</time>
      </trkpt>
      <trkpt lat="47.3059" lon="-1.96247">
        <ele>1</ele>
        <time>2014-09-25T13:08:49Z</time>
      </trkpt>
      <trkpt lat="47.30593" lon="-1.96227">
        <ele>2</ele>
        <time>2014-09-25T13:09:01Z</time>
      </trkpt>
      <trkpt lat="47.30598" lon="-1.96207">
        <ele>2.8</ele>
        <time>2014-09-25T13:09:17Z</time>
      </trkpt>
      <trkpt lat="47.30601" lon="-1.96186">
        <ele>3</ele>
        <time>2014-09-25T13:09:29Z</time>
      </trkpt>
      <trkpt lat="47.30605" lon="-1.96167">
        <ele>2</ele>
        <time>2014-09-25T13:09:41Z</time>
      </trkpt>
      <trkpt lat="47.30608" lon="-1.96147">
        <ele>3</ele>
        <time>2014-09-25T13:09:52Z</time>
      </trkpt>
      <trkpt lat="47.30613" lon="-1.96126">
        <ele>1</ele>
        <time>2014-09-25T13:10:06Z</time>
      </trkpt>
      <trkpt lat="47.30619" lon="-1.96107">
        <ele>4</ele>
        <time>2014-09-25T13:10:17Z</time>
      </trkpt>
      <trkpt lat="47.30625" lon="-1.96089">
        <ele>4</ele>
        <time>2014-09-25T13:10:28Z</time>
      </trkpt>
      <trkpt lat="47.30632" lon="-1.96071">
        <ele>3</ele>
        <time>2014-09-25T13:10:44Z</time>
      </trkpt>
      <trkpt lat="47.30638" lon="-1.96053">
        <ele>1</ele>
        <time>2014-09-25T13:10:58Z</time>
      </trkpt>
      <trkpt lat="47.30643" lon="-1.96034">
        <ele>3</ele>
        <time>2014-09-25T13:11:11Z</time>
      </trkpt>
      <trkpt lat="47.30648" lon="-1.9601">
        <ele>6</ele>
        <time>2014-09-25T13:11:24Z</time>
      </trkpt>
      <trkpt lat="47.30653" lon="-1.95991">
        <ele>6</ele>
        <time>2014-09-25T13:11:38Z</time>
      </trkpt>
      <trkpt lat="47.30655" lon="-1.9597">
        <ele>6</ele>
        <time>2014-09-25T13:11:52Z</time>
      </trkpt>
      <trkpt lat="47.30643" lon="-1.9596">
        <ele>7</ele>
        <time>2014-09-25T13:12:06Z</time>
      </trkpt>
      <trkpt lat="47.30643" lon="-1.95939">
        <ele>4</ele>
        <time>2014-09-25T13:12:30Z</time>
      </trkpt>
      <trkpt lat="47.30645" lon="-1.95917">
        <ele>2</ele>
        <time>2014-09-25T13:12:38Z</time>
      </trkpt>
      <trkpt lat="47.30651" lon="-1.95897">
        <ele>7</ele>
        <time>2014-09-25T13:12:50Z</time>
      </trkpt>
      <trkpt lat="47.30653" lon="-1.95877">
        <ele>5</ele>
        <time>2014-09-25T13:13:00Z</time>
      </trkpt>
      <trkpt lat="47.30655" lon="-1.95856">
        <ele>5</ele>
        <time>2014-09-25T13:13:12Z</time>
      </trkpt>
      <trkpt lat="47.30659" lon="-1.95836">
        <ele>4</ele>
        <time>2014-09-25T13:13:26Z</time>
      </trkpt>
      <trkpt lat="47.30666" lon="-1.95819">
        <ele>7</ele>
        <time>2014-09-25T13:13:37Z</time>
      </trkpt>
      <trkpt lat="47.30668" lon="-1.95799">
        <ele>6</ele>
        <time>2014-09-25T13:13:48Z</time>
      </trkpt>
      <trkpt lat="47.30674" lon="-1.9578">
        <ele>4</ele>
        <time>2014-09-25T13:14:02Z</time>
      </trkpt>
      <trkpt lat="47.30679" lon="-1.95761">
        <ele>3</ele>
        <time>2014-09-25T13:14:14Z</time>
      </trkpt>
      <trkpt lat="47.30682" lon="-1.95742">
        <ele>1</ele>
        <time>2014-09-25T13:14:27Z</time>
      </trkpt>
      <trkpt lat="47.30687" lon="-1.95723">
        <ele>4</ele>
        <time>2014-09-25T13:14:37Z</time>
      </trkpt>
      <trkpt lat="47.30693" lon="-1.95704">
        <ele>1</ele>
        <time>2014-09-25T13:14:54Z</time>
      </trkpt>
      <trkpt lat="47.30695" lon="-1.95683">
        <ele>3</ele>
        <time>2014-09-25T13:15:05Z</time>
      </trkpt>
      <trkpt lat="47.30697" lon="-1.95662">
        <ele>1</ele>
        <time>2014-09-25T13:15:19Z</time>
      </trkpt>
      <trkpt lat="47.307" lon="-1.95643">
        <ele>4</ele>
        <time>2014-09-25T13:15:29Z</time>
      </trkpt>
      <trkpt lat="47.30705" lon="-1.95624">
        <ele>3</ele>
        <time>2014-09-25T13:15:41Z</time>
      </trkpt>
      <trkpt lat="47.30709" lon="-1.95604">
        <ele>4</ele>
        <time>2014-09-25T13:15:52Z</time>
      </trkpt>
      <trkpt lat="47.30711" lon="-1.95584">
        <ele>2</ele>
        <time>2014-09-25T13:16:03Z</time>
      </trkpt>
      <trkpt lat="47.30715" lon="-1.95564">
        <ele>2</ele>
        <time>2014-09-25T13:16:16Z</time>
      </trkpt>
      <trkpt lat="47.30718" lon="-1.95544">
        <ele>1</ele>
        <time>2014-09-25T13:16:28Z</time>
      </trkpt>
      <trkpt lat="47.3072" lon="-1.95524">
        <ele>3</ele>
        <time>2014-09-25T13:16:41Z</time>
      </trkpt>
      <trkpt lat="47.3072" lon="-1.95504">
        <ele>1</ele>
        <time>2014-09-25T13:17:13Z</time>
      </trkpt>
      <trkpt lat="47.30724" lon="-1.95484">
        <ele>3</ele>
        <time>2014-09-25T13:17:22Z</time>
      </trkpt>
      <trkpt lat="47.30727" lon="-1.95465">
        <ele>3</ele>
        <time>2014-09-25T13:17:35Z</time>
      </trkpt>
      <trkpt lat="47.30732" lon="-1.95445">
        <ele>2</ele>
        <time>2014-09-25T13:17:47Z</time>
      </trkpt>
      <trkpt lat="47.30737" lon="-1.95426">
        <ele>-2</ele>
        <time>2014-09-25T13:18:01Z</time>
      </trkpt>
      <trkpt lat="47.30738" lon="-1.95404">
        <ele>-2</ele>
        <time>2014-09-25T13:18:11Z</time>
      </trkpt>
      <trkpt lat="47.30744" lon="-1.95385">
        <ele>-2</ele>
        <time>2014-09-25T13:18:22Z</time>
      </trkpt>
      <trkpt lat="47.30746" lon="-1.95363">
        <ele>-1</ele>
        <time>2014-09-25T13:18:32Z</time>
      </trkpt>
      <trkpt lat="47.30751" lon="-1.95343">
        <ele>-1</ele>
        <time>2014-09-25T13:18:46Z</time>
      </trkpt>
      <trkpt lat="47.30755" lon="-1.95323">
        <ele>-4</ele>
        <time>2014-09-25T13:18:58Z</time>
      </trkpt>
      <trkpt lat="47.30758" lon="-1.95302">
        <ele>-11</ele>
        <time>2014-09-25T13:19:09Z</time>
      </trkpt>
      <trkpt lat="47.30759" lon="-1.95281">
        <ele>-4</ele>
        <time>2014-09-25T13:19:21Z</time>
      </trkpt>
      <trkpt lat="47.30762" lon="-1.95261">
        <ele>-3</ele>
        <time>2014-09-25T13:19:36Z</time>
      </trkpt>
      <trkpt lat="47.30767" lon="-1.95242">
        <ele>-1</ele>
        <time>2014-09-25T13:19:49Z</time>
      </trkpt>
      <trkpt lat="47.30777" lon="-1.95227">
        <ele>3</ele>
        <time>2014-09-25T13:20:05Z</time>
      </trkpt>
      <trkpt lat="47.30791" lon="-1.95226">
        <ele>2</ele>
        <time>2014-09-25T13:20:20Z</time>
      </trkpt>
      <trkpt lat="47.30805" lon="-1.95228">
        <ele>3</ele>
        <time>2014-09-25T13:20:33Z</time>
      </trkpt>
      <trkpt lat="47.3082" lon="-1.95225">
        <ele>-1</ele>
        <time>2014-09-25T13:20:45Z</time>
      </trkpt>
      <trkpt lat="47.30833" lon="-1.9522">
        <ele>-2</ele>
        <time>2014-09-25T13:20:56Z</time>
      </trkpt>
      <trkpt lat="47.30846" lon="-1.95212">
        <ele>-1</ele>
        <time>2014-09-25T13:21:09Z</time>
      </trkpt>
      <trkpt lat="47.30859" lon="-1.95205">
        <ele>-1</ele>
        <time>2014-09-25T13:21:20Z</time>
      </trkpt>
      <trkpt lat="47.30872" lon="-1.95198">
        <ele>4</ele>
        <time>2014-09-25T13:21:29Z</time>
      </trkpt>
      <trkpt lat="47.30878" lon="-1.9518">
        <ele>4</ele>
        <time>2014-09-25T13:21:40Z</time>
      </trkpt>
      <trkpt lat="47.30885" lon="-1.95163">
        <ele>4</ele>
        <time>2014-09-25T13:21:53Z</time>
      </trkpt>
      <trkpt lat="47.30895" lon="-1.95147">
        <ele>3</ele>
        <time>2014-09-25T13:22:08Z</time>
      </trkpt>
      <trkpt lat="47.30909" lon="-1.95144">
        <ele>3.4</ele>
        <time>2014-09-25T13:22:23Z</time>
      </trkpt>
      <trkpt lat="47.30923" lon="-1.95142">
        <ele>3</ele>
        <time>2014-09-25T13:22:35Z</time>
      </trkpt>
      <trkpt lat="47.30935" lon="-1.95131">
        <ele>1</ele>
        <time>2014-09-25T13:22:49Z</time>
      </trkpt>
      <trkpt lat="47.30948" lon="-1.95122">
        <ele>4.6</ele>
        <time>2014-09-25T13:23:01Z</time>
      </trkpt>
      <trkpt lat="47.3096" lon="-1.95112">
        <ele>-1</ele>
        <time>2014-09-25T13:23:12Z</time>
      </trkpt>
      <trkpt lat="47.3097" lon="-1.95099">
        <ele>5</ele>
        <time>2014-09-25T13:23:21Z</time>
      </trkpt>
      <trkpt lat="47.30983" lon="-1.9509">
        <ele>4</ele>
        <time>2014-09-25T13:23:37Z</time>
      </trkpt>
      <trkpt lat="47.30997" lon="-1.95088">
        <ele>5</ele>
        <time>2014-09-25T13:23:48Z</time>
      </trkpt>
      <trkpt lat="47.31011" lon="-1.95088">
        <ele>4</ele>
        <time>2014-09-25T13:24:00Z</time>
      </trkpt>
      <trkpt lat="47.31025" lon="-1.95088">
        <ele>5</ele>
        <time>2014-09-25T13:24:09Z</time>
      </trkpt>
      <trkpt lat="47.31039" lon="-1.95082">
        <ele>4</ele>
        <time>2014-09-25T13:24:20Z</time>
      </trkpt>
      <trkpt lat="47.31053" lon="-1.9508">
        <ele>2</ele>
        <time>2014-09-25T13:24:34Z</time>
      </trkpt>
      <trkpt lat="47.31066" lon="-1.95076">
        <ele>-3</ele>
        <time>2014-09-25T13:24:48Z</time>
      </trkpt>
      <trkpt lat="47.31079" lon="-1.95069">
        <ele>5.5</ele>
        <time>2014-09-25T13:25:02Z</time>
      </trkpt>
      <trkpt lat="47.31089" lon="-1.95055">
        <ele>-2</ele>
        <time>2014-09-25T13:25:17Z</time>
      </trkpt>
      <trkpt lat="47.31103" lon="-1.95052">
        <ele>1</ele>
        <time>2014-09-25T13:25:28Z</time>
      </trkpt>
      <trkpt lat="47.31116" lon="-1.95047">
        <ele>5</ele>
        <time>2014-09-25T13:25:40Z</time>
      </trkpt>
      <trkpt lat="47.31126" lon="-1.95032">
        <ele>3</ele>
        <time>2014-09-25T13:25:51Z</time>
      </trkpt>
      <trkpt lat="47.31129" lon="-1.95011">
        <ele>7</ele>
        <time>2014-09-25T13:26:20Z</time>
      </trkpt>
      <trkpt lat="47.31125" lon="-1.94991">
        <ele>9</ele>
        <time>2014-09-25T13:26:32Z</time>
      </trkpt>
      <trkpt lat="47.31121" lon="-1.9497">
        <ele>11</ele>
        <time>2014-09-25T13:26:44Z</time>
      </trkpt>
      <trkpt lat="47.31117" lon="-1.9495">
        <ele>11</ele>
        <time>2014-09-25T13:26:57Z</time>
      </trkpt>
      <trkpt lat="47.31116" lon="-1.94928">
        <ele>10</ele>
        <time>2014-09-25T13:27:09Z</time>
      </trkpt>
      <trkpt lat="47.31113" lon="-1.94909">
        <ele>9</ele>
        <time>2014-09-25T13:27:19Z</time>
      </trkpt>
      <trkpt lat="47.31109" lon="-1.9489">
        <ele>7</ele>
        <time>2014-09-25T13:27:37Z</time>
      </trkpt>
      <trkpt lat="47.31099" lon="-1.94875">
        <ele>9</ele>
        <time>2014-09-25T13:27:47Z</time>
      </trkpt>
      <trkpt lat="47.31094" lon="-1.94856">
        <ele>8</ele>
        <time>2014-09-25T13:27:59Z</time>
      </trkpt>
      <trkpt lat="47.31106" lon="-1.94865">
        <ele>6</ele>
        <time>2014-09-25T13:28:07Z</time>
      </trkpt>
      <trkpt lat="47.31099" lon="-1.94846">
        <ele>2</ele>
        <time>2014-09-25T13:28:16Z</time>
      </trkpt>
      <trkpt lat="47.31089" lon="-1.94827">
        <ele>4</ele>
        <time>2014-09-25T13:28:21Z</time>
      </trkpt>
      <trkpt lat="47.31084" lon="-1.94808">
        <ele>5</ele>
        <time>2014-09-25T13:28:27Z</time>
      </trkpt>
      <trkpt lat="47.31081" lon="-1.94787">
        <ele>5</ele>
        <time>2014-09-25T13:28:38Z</time>
      </trkpt>
      <trkpt lat="47.31077" lon="-1.94768">
        <ele>3</ele>
        <time>2014-09-25T13:28:53Z</time>
      </trkpt>
      <trkpt lat="47.31074" lon="-1.94748">
        <ele>3</ele>
        <time>2014-09-25T13:29:02Z</time>
      </trkpt>
      <trkpt lat="47.31072" lon="-1.94727">
        <ele>3</ele>
        <time>2014-09-25T13:29:13Z</time>
      </trkpt>
      <trkpt lat="47.3107" lon="-1.94707">
        <ele>2</ele>
        <time>2014-09-25T13:29:27Z</time>
      </trkpt>
      <trkpt lat="47.31065" lon="-1.94687">
        <ele>-1</ele>
        <time>2014-09-25T13:29:38Z</time>
      </trkpt>
      <trkpt lat="47.31061" lon="-1.94668">
        <ele>3.2</ele>
        <time>2014-09-25T13:29:50Z</time>
      </trkpt>
      <trkpt lat="47.31056" lon="-1.94648">
        <ele>-1</ele>
        <time>2014-09-25T13:30:00Z</time>
      </trkpt>
      <trkpt lat="47.31049" lon="-1.9463">
        <ele>1</ele>
        <time>2014-09-25T13:30:10Z</time>
      </trkpt>
      <trkpt lat="47.31047" lon="-1.9461">
        <ele>-1</ele>
        <time>2014-09-25T13:30:20Z</time>
      </trkpt>
      <trkpt lat="47.31051" lon="-1.9459">
        <ele>3</ele>
        <time>2014-09-25T13:30:35Z</time>
      </trkpt>
      <trkpt lat="47.31056" lon="-1.94571">
        <ele>3</ele>
        <time>2014-09-25T13:30:45Z</time>
      </trkpt>
      <trkpt lat="47.31063" lon="-1.94554">
        <ele>3</ele>
        <time>2014-09-25T13:30:57Z</time>
      </trkpt>
      <trkpt lat="47.3107" lon="-1.94535">
        <ele>-1</ele>
        <time>2014-09-25T13:31:09Z</time>
      </trkpt>
      <trkpt lat="47.31079" lon="-1.94519">
        <ele>-4</ele>
        <time>2014-09-25T13:31:20Z</time>
      </trkpt>
      <trkpt lat="47.3109" lon="-1.94505">
        <ele>-7</ele>
        <time>2014-09-25T13:31:32Z</time>
      </trkpt>
      <trkpt lat="47.31102" lon="-1.94496">
        <ele>-6</ele>
        <time>2014-09-25T13:31:43Z</time>
      </trkpt>
      <trkpt lat="47.31112" lon="-1.94482">
        <ele>-6</ele>
        <time>2014-09-25T13:31:53Z</time>
      </trkpt>
      <trkpt lat="47.31123" lon="-1.94469">
        <ele>-13</ele>
        <time>2014-09-25T13:32:09Z</time>
      </trkpt>
      <trkpt lat="47.31134" lon="-1.94456">
        <ele>-12</ele>
        <time>2014-09-25T13:32:21Z</time>
      </trkpt>
      <trkpt lat="47.31148" lon="-1.94447">
        <ele>-10</ele>
        <time>2014-09-25T13:32:31Z</time>
      </trkpt>
      <trkpt lat="47.31158" lon="-1.94435">
        <ele>-11</ele>
        <time>2014-09-25T13:32:41Z</time>
      </trkpt>
      <trkpt lat="47.31172" lon="-1.9443">
        <ele>-15</ele>
        <time>2014-09-25T13:32:56Z</time>
      </trkpt>
      <trkpt lat="47.31183" lon="-1.94417">
        <ele>-15</ele>
        <time>2014-09-25T13:33:06Z</time>
      </trkpt>
      <trkpt lat="47.31196" lon="-1.9441">
        <ele>-14</ele>
        <time>2014-09-25T13:33:19Z</time>
      </trkpt>
      <trkpt lat="47.31209" lon="-1.944">
        <ele>-15</ele>
        <time>2014-09-25T13:33:31Z</time>
      </trkpt>
      <trkpt lat="47.31218" lon="-1.94385">
        <ele>-13</ele>
        <time>2014-09-25T13:33:39Z</time>
      </trkpt>
      <trkpt lat="47.31231" lon="-1.94377">
        <ele>-10</ele>
        <time>2014-09-25T13:33:49Z</time>
      </trkpt>
      <trkpt lat="47.3124" lon="-1.9436">
        <ele>-8</ele>
        <time>2014-09-25T13:33:57Z</time>
      </trkpt>
      <trkpt lat="47.3125" lon="-1.94346">
        <ele>-7</ele>
        <time>2014-09-25T13:34:09Z</time>
      </trkpt>
      <trkpt lat="47.31261" lon="-1.94333">
        <ele>-7</ele>
        <time>2014-09-25T13:34:19Z</time>
      </trkpt>
      <trkpt lat="47.31274" lon="-1.94323">
        <ele>-2</ele>
        <time>2014-09-25T13:34:28Z</time>
      </trkpt>
      <trkpt lat="47.31286" lon="-1.94312">
        <ele>-1</ele>
        <time>2014-09-25T13:34:39Z</time>
      </trkpt>
      <trkpt lat="47.31298" lon="-1.94302">
        <ele>-4</ele>
        <time>2014-09-25T13:34:51Z</time>
      </trkpt>
      <trkpt lat="47.31312" lon="-1.94296">
        <ele>-15</ele>
        <time>2014-09-25T13:35:07Z</time>
      </trkpt>
      <trkpt lat="47.31323" lon="-1.94285">
        <ele>-14</ele>
        <time>2014-09-25T13:35:17Z</time>
      </trkpt>
      <trkpt lat="47.31335" lon="-1.94275">
        <ele>-16</ele>
        <time>2014-09-25T13:35:30Z</time>
      </trkpt>
      <trkpt lat="47.31346" lon="-1.94261">
        <ele>-16</ele>
        <time>2014-09-25T13:35:41Z</time>
      </trkpt>
      <trkpt lat="47.31358" lon="-1.94251">
        <ele>-12</ele>
        <time>2014-09-25T13:35:49Z</time>
      </trkpt>
      <trkpt lat="47.3137" lon="-1.94242">
        <ele>-11</ele>
        <time>2014-09-25T13:36:00Z</time>
      </trkpt>
      <trkpt lat="47.31382" lon="-1.94232">
        <ele>-13</ele>
        <time>2014-09-25T13:36:13Z</time>
      </trkpt>
      <trkpt lat="47.31395" lon="-1.94224">
        <ele>-20</ele>
        <time>2014-09-25T13:36:27Z</time>
      </trkpt>
      <trkpt lat="47.31408" lon="-1.94213">
        <ele>-18</ele>
        <time>2014-09-25T13:36:43Z</time>
      </trkpt>
      <trkpt lat="47.31422" lon="-1.94207">
        <ele>-16</ele>
        <time>2014-09-25T13:36:51Z</time>
      </trkpt>
      <trkpt lat="47.31438" lon="-1.94213">
        <ele>-11</ele>
        <time>2014-09-25T13:36:59Z</time>
      </trkpt>
      <trkpt lat="47.31452" lon="-1.94217">
        <ele>-5</ele>
        <time>2014-09-25T13:37:10Z</time>
      </trkpt>
      <trkpt lat="47.31465" lon="-1.94222">
        <ele>-3</ele>
        <time>2014-09-25T13:37:18Z</time>
      </trkpt>
      <trkpt lat="47.31479" lon="-1.94228">
        <ele>-5</ele>
        <time>2014-09-25T13:37:29Z</time>
      </trkpt>
      <trkpt lat="47.31492" lon="-1.94232">
        <ele>-2</ele>
        <time>2014-09-25T13:37:39Z</time>
      </trkpt>
      <trkpt lat="47.31504" lon="-1.94241">
        <ele>-3</ele>
        <time>2014-09-25T13:37:53Z</time>
      </trkpt>
      <trkpt lat="47.31518" lon="-1.94238">
        <ele>-1</ele>
        <time>2014-09-25T13:38:02Z</time>
      </trkpt>
      <trkpt lat="47.31529" lon="-1.94249">
        <ele>3</ele>
        <time>2014-09-25T13:38:13Z</time>
      </trkpt>
      <trkpt lat="47.31543" lon="-1.94251">
        <ele>-2</ele>
        <time>2014-09-25T13:38:25Z</time>
      </trkpt>
      <trkpt lat="47.31555" lon="-1.94261">
        <ele>3</ele>
        <time>2014-09-25T13:38:34Z</time>
      </trkpt>
      <trkpt lat="47.31574" lon="-1.9426">
        <ele>3</ele>
        <time>2014-09-25T13:38:49Z</time>
      </trkpt>
      <trkpt lat="47.31587" lon="-1.94268">
        <ele>2</ele>
        <time>2014-09-25T13:38:56Z</time>
      </trkpt>
      <trkpt lat="47.31601" lon="-1.94271">
        <ele>1</ele>
        <time>2014-09-25T13:39:05Z</time>
      </trkpt>
      <trkpt lat="47.31615" lon="-1.94275">
        <ele>1</ele>
        <time>2014-09-25T13:39:16Z</time>
      </trkpt>
      <trkpt lat="47.31628" lon="-1.9428">
        <ele>3</ele>
        <time>2014-09-25T13:39:37Z</time>
      </trkpt>
      <trkpt lat="47.31642" lon="-1.94287">
        <ele>5</ele>
        <time>2014-09-25T13:39:45Z</time>
      </trkpt>
      <trkpt lat="47.31656" lon="-1.94287">
        <ele>4</ele>
        <time>2014-09-25T13:39:51Z</time>
      </trkpt>
      <trkpt lat="47.31669" lon="-1.94291">
        <ele>4</ele>
        <time>2014-09-25T13:40:04Z</time>
      </trkpt>
      <trkpt lat="47.31683" lon="-1.94288">
        <ele>1</ele>
        <time>2014-09-25T13:40:22Z</time>
      </trkpt>
      <trkpt lat="47.31698" lon="-1.94288">
        <ele>3.6</ele>
        <time>2014-09-25T13:40:34Z</time>
      </trkpt>
      <trkpt lat="47.31711" lon="-1.94282">
        <ele>-2</ele>
        <time>2014-09-25T13:40:43Z</time>
      </trkpt>
      <trkpt lat="47.31725" lon="-1.94278">
        <ele>-1</ele>
        <time>2014-09-25T13:40:54Z</time>
      </trkpt>
      <trkpt lat="47.3174" lon="-1.94276">
        <ele>-1</ele>
        <time>2014-09-25T13:41:09Z</time>
      </trkpt>
      <trkpt lat="47.31754" lon="-1.94266">
        <ele>-2</ele>
        <time>2014-09-25T13:41:24Z</time>
      </trkpt>
      <trkpt lat="47.31767" lon="-1.94257">
        <ele>-4</ele>
        <time>2014-09-25T13:41:33Z</time>
      </trkpt>
      <trkpt lat="47.31778" lon="-1.94244">
        <ele>-3</ele>
        <time>2014-09-25T13:41:44Z</time>
      </trkpt>
      <trkpt lat="47.31788" lon="-1.94228">
        <ele>-3</ele>
        <time>2014-09-25T13:41:55Z</time>
      </trkpt>
      <trkpt lat="47.31799" lon="-1.94214">
        <ele>-2</ele>
        <time>2014-09-25T13:42:09Z</time>
      </trkpt>
      <trkpt lat="47.31811" lon="-1.94205">
        <ele>2</ele>
        <time>2014-09-25T13:42:22Z</time>
      </trkpt>
      <trkpt lat="47.31822" lon="-1.94191">
        <ele>-2</ele>
        <time>2014-09-25T13:42:34Z</time>
      </trkpt>
      <trkpt lat="47.31832" lon="-1.94178">
        <ele>-11</ele>
        <time>2014-09-25T13:42:48Z</time>
      </trkpt>
      <trkpt lat="47.3184" lon="-1.9416">
        <ele>-13</ele>
        <time>2014-09-25T13:42:59Z</time>
      </trkpt>
      <trkpt lat="47.31848" lon="-1.94144">
        <ele>-12</ele>
        <time>2014-09-25T13:43:09Z</time>
      </trkpt>
      <trkpt lat="47.31861" lon="-1.94133">
        <ele>-12</ele>
        <time>2014-09-25T13:43:21Z</time>
      </trkpt>
      <trkpt lat="47.31869" lon="-1.94116">
        <ele>-16</ele>
        <time>2014-09-25T13:43:36Z</time>
      </trkpt>
      <trkpt lat="47.31879" lon="-1.94101">
        <ele>-21</ele>
        <time>2014-09-25T13:43:55Z</time>
      </trkpt>
      <trkpt lat="47.31892" lon="-1.94091">
        <ele>-14</ele>
        <time>2014-09-25T13:44:01Z</time>
      </trkpt>
      <trkpt lat="47.31903" lon="-1.94079">
        <ele>-13</ele>
        <time>2014-09-25T13:44:11Z</time>
      </trkpt>
      <trkpt lat="47.31915" lon="-1.94066">
        <ele>-10</ele>
        <time>2014-09-25T13:44:23Z</time>
      </trkpt>
      <trkpt lat="47.31926" lon="-1.94053">
        <ele>-4</ele>
        <time>2014-09-25T13:44:30Z</time>
      </trkpt>
      <trkpt lat="47.31937" lon="-1.94039">
        <ele>-3</ele>
        <time>2014-09-25T13:44:37Z</time>
      </trkpt>
      <trkpt lat="47.31951" lon="-1.94035">
        <ele>6.8</ele>
        <time>2014-09-25T13:44:50Z</time>
      </trkpt>
      <trkpt lat="47.31963" lon="-1.94026">
        <ele>3</ele>
        <time>2014-09-25T13:45:04Z</time>
      </trkpt>
      <trkpt lat="47.31976" lon="-1.9402">
        <ele>4</ele>
        <time>2014-09-25T13:45:19Z</time>
      </trkpt>
      <trkpt lat="47.31989" lon="-1.94027">
        <ele>7</ele>
        <time>2014-09-25T13:45:27Z</time>
      </trkpt>
      <trkpt lat="47.32004" lon="-1.94021">
        <ele>-1</ele>
        <time>2014-09-25T13:45:46Z</time>
      </trkpt>
      <trkpt lat="47.32018" lon="-1.94021">
        <ele>7</ele>
        <time>2014-09-25T13:46:01Z</time>
      </trkpt>
      <trkpt lat="47.32033" lon="-1.94021">
        <ele>3</ele>
        <time>2014-09-25T13:46:12Z</time>
      </trkpt>
      <trkpt lat="47.32047" lon="-1.94019">
        <ele>4</ele>
        <time>2014-09-25T13:46:22Z</time>
      </trkpt>
      <trkpt lat="47.3206" lon="-1.94014">
        <ele>6</ele>
        <time>2014-09-25T13:46:33Z</time>
      </trkpt>
      <trkpt lat="47.32074" lon="-1.9401">
        <ele>2</ele>
        <time>2014-09-25T13:46:42Z</time>
      </trkpt>
      <trkpt lat="47.32088" lon="-1.94012">
        <ele>1</ele>
        <time>2014-09-25T13:46:58Z</time>
      </trkpt>
      <trkpt lat="47.32101" lon="-1.94005">
        <ele>7</ele>
        <time>2014-09-25T13:47:07Z</time>
      </trkpt>
      <trkpt lat="47.32115" lon="-1.94001">
        <ele>-2</ele>
        <time>2014-09-25T13:47:18Z</time>
      </trkpt>
      <trkpt lat="47.32129" lon="-1.94001">
        <ele>-3</ele>
        <time>2014-09-25T13:47:28Z</time>
      </trkpt>
      <trkpt lat="47.32143" lon="-1.93993">
        <ele>-1</ele>
        <time>2014-09-25T13:47:40Z</time>
      </trkpt>
      <trkpt lat="47.32156" lon="-1.93985">
        <ele>7</ele>
        <time>2014-09-25T13:47:51Z</time>
      </trkpt>
      <trkpt lat="47.32169" lon="-1.93978">
        <ele>-1</ele>
        <time>2014-09-25T13:48:02Z</time>
      </trkpt>
      <trkpt lat="47.32182" lon="-1.9397">
        <ele>2</ele>
        <time>2014-09-25T13:48:13Z</time>
      </trkpt>
      <trkpt lat="47.32196" lon="-1.93967">
        <ele>7</ele>
        <time>2014-09-25T13:48:36Z</time>
      </trkpt>
      <trkpt lat="47.32208" lon="-1.93957">
        <ele>-1</ele>
        <time>2014-09-25T13:48:54Z</time>
      </trkpt>
      <trkpt lat="47.3222" lon="-1.93947">
        <ele>-1</ele>
        <time>2014-09-25T13:49:05Z</time>
      </trkpt>
      <trkpt lat="47.32233" lon="-1.93939">
        <ele>-2</ele>
        <time>2014-09-25T13:49:16Z</time>
      </trkpt>
      <trkpt lat="47.32246" lon="-1.93932">
        <ele>-3</ele>
        <time>2014-09-25T13:49:28Z</time>
      </trkpt>
      <trkpt lat="47.32259" lon="-1.93928">
        <ele>-6</ele>
        <time>2014-09-25T13:49:39Z</time>
      </trkpt>
      <trkpt lat="47.32273" lon="-1.93922">
        <ele>-5</ele>
        <time>2014-09-25T13:49:50Z</time>
      </trkpt>
      <trkpt lat="47.32287" lon="-1.93916">
        <ele>-3</ele>
        <time>2014-09-25T13:50:02Z</time>
      </trkpt>
      <trkpt lat="47.32301" lon="-1.93912">
        <ele>-2</ele>
        <time>2014-09-25T13:50:13Z</time>
      </trkpt>
      <trkpt lat="47.32314" lon="-1.93908">
        <ele>-1</ele>
        <time>2014-09-25T13:50:22Z</time>
      </trkpt>
      <trkpt lat="47.32328" lon="-1.93904">
        <ele>7.1</ele>
        <time>2014-09-25T13:50:34Z</time>
      </trkpt>
      <trkpt lat="47.32342" lon="-1.93903">
        <ele>1</ele>
        <time>2014-09-25T13:50:47Z</time>
      </trkpt>
      <trkpt lat="47.32357" lon="-1.939">
        <ele>-2</ele>
        <time>2014-09-25T13:50:59Z</time>
      </trkpt>
      <trkpt lat="47.32371" lon="-1.93901">
        <ele>-5</ele>
        <time>2014-09-25T13:51:12Z</time>
      </trkpt>
      <trkpt lat="47.32385" lon="-1.939">
        <ele>-4</ele>
        <time>2014-09-25T13:51:20Z</time>
      </trkpt>
      <trkpt lat="47.32398" lon="-1.93895">
        <ele>-2</ele>
        <time>2014-09-25T13:51:30Z</time>
      </trkpt>
      <trkpt lat="47.32413" lon="-1.93897">
        <ele>6.7</ele>
        <time>2014-09-25T13:51:41Z</time>
      </trkpt>
      <trkpt lat="47.32426" lon="-1.939">
        <ele>6.4</ele>
        <time>2014-09-25T13:51:53Z</time>
      </trkpt>
      <trkpt lat="47.32441" lon="-1.939">
        <ele>2</ele>
        <time>2014-09-25T13:52:01Z</time>
      </trkpt>
      <trkpt lat="47.32456" lon="-1.93897">
        <ele>-1</ele>
        <time>2014-09-25T13:52:13Z</time>
      </trkpt>
      <trkpt lat="47.32469" lon="-1.9389">
        <ele>-2</ele>
        <time>2014-09-25T13:52:24Z</time>
      </trkpt>
      <trkpt lat="47.32485" lon="-1.93886">
        <ele>6.1</ele>
        <time>2014-09-25T13:52:36Z</time>
      </trkpt>
      <trkpt lat="47.325" lon="-1.93893">
        <ele>1</ele>
        <time>2014-09-25T13:52:42Z</time>
      </trkpt>
      <trkpt lat="47.32507" lon="-1.93875">
        <ele>2</ele>
        <time>2014-09-25T13:52:55Z</time>
      </trkpt>
      <trkpt lat="47.32517" lon="-1.93861">
        <ele>6</ele>
        <time>2014-09-25T13:53:08Z</time>
      </trkpt>
      <trkpt lat="47.32529" lon="-1.93847">
        <ele>-5</ele>
        <time>2014-09-25T13:53:20Z</time>
      </trkpt>
      <trkpt lat="47.3254" lon="-1.93835">
        <ele>-5</ele>
        <time>2014-09-25T13:53:29Z</time>
      </trkpt>
      <trkpt lat="47.32552" lon="-1.93826">
        <ele>-4</ele>
        <time>2014-09-25T13:53:41Z</time>
      </trkpt>
      <trkpt lat="47.32542" lon="-1.9381">
        <ele>-2</ele>
        <time>2014-09-25T13:54:08Z</time>
      </trkpt>
      <trkpt lat="47.32536" lon="-1.93791">
        <ele>2</ele>
        <time>2014-09-25T13:54:18Z</time>
      </trkpt>
      <trkpt lat="47.32534" lon="-1.93771">
        <ele>7</ele>
        <time>2014-09-25T13:54:31Z</time>
      </trkpt>
      <trkpt lat="47.32535" lon="-1.9375">
        <ele>2</ele>
        <time>2014-09-25T13:54:41Z</time>
      </trkpt>
      <trkpt lat="47.32534" lon="-1.9373">
        <ele>7</ele>
        <time>2014-09-25T13:54:51Z</time>
      </trkpt>
      <trkpt lat="47.32531" lon="-1.9371">
        <ele>1</ele>
        <time>2014-09-25T13:55:01Z</time>
      </trkpt>
      <trkpt lat="47.32526" lon="-1.93689">
        <ele>7.2</ele>
        <time>2014-09-25T13:55:16Z</time>
      </trkpt>
      <trkpt lat="47.32518" lon="-1.93673">
        <ele>1</ele>
        <time>2014-09-25T13:55:24Z</time>
      </trkpt>
      <trkpt lat="47.32507" lon="-1.93644">
        <ele>-1</ele>
        <time>2014-09-25T13:55:39Z</time>
      </trkpt>
      <trkpt lat="47.32504" lon="-1.93622">
        <ele>8</ele>
        <time>2014-09-25T13:55:46Z</time>
      </trkpt>
      <trkpt lat="47.32494" lon="-1.93604">
        <ele>-1</ele>
        <time>2014-09-25T13:56:11Z</time>
      </trkpt>
      <trkpt lat="47.32491" lon="-1.93581">
        <ele>2</ele>
        <time>2014-09-25T13:56:17Z</time>
      </trkpt>
      <trkpt lat="47.32486" lon="-1.93563">
        <ele>7.6</ele>
        <time>2014-09-25T13:56:24Z</time>
      </trkpt>
      <trkpt lat="47.32477" lon="-1.93546">
        <ele>7.1</ele>
        <time>2014-09-25T13:56:40Z</time>
      </trkpt>
      <trkpt lat="47.32473" lon="-1.93527">
        <ele>-2</ele>
        <time>2014-09-25T13:56:56Z</time>
      </trkpt>
      <trkpt lat="47.32471" lon="-1.93506">
        <ele>-3</ele>
        <time>2014-09-25T13:57:02Z</time>
      </trkpt>
      <trkpt lat="47.32469" lon="-1.93486">
        <ele>5.9</ele>
        <time>2014-09-25T13:57:09Z</time>
      </trkpt>
      <trkpt lat="47.32463" lon="-1.93467">
        <ele>-2</ele>
        <time>2014-09-25T13:57:24Z</time>
      </trkpt>
      <trkpt lat="47.32456" lon="-1.93449">
        <ele>-4</ele>
        <time>2014-09-25T13:57:36Z</time>
      </trkpt>
      <trkpt lat="47.32447" lon="-1.93435">
        <ele>-8</ele>
        <time>2014-09-25T13:57:50Z</time>
      </trkpt>
      <trkpt lat="47.32435" lon="-1.93425">
        <ele>-5</ele>
        <time>2014-09-25T13:58:01Z</time>
      </trkpt>
      <trkpt lat="47.32421" lon="-1.93418">
        <ele>-7</ele>
        <time>2014-09-25T13:58:11Z</time>
      </trkpt>
      <trkpt lat="47.32416" lon="-1.93398">
        <ele>-8</ele>
        <time>2014-09-25T13:58:21Z</time>
      </trkpt>
      <trkpt lat="47.32426" lon="-1.93382">
        <ele>-6</ele>
        <time>2014-09-25T13:58:33Z</time>
      </trkpt>
      <trkpt lat="47.32434" lon="-1.93366">
        <ele>-8</ele>
        <time>2014-09-25T13:58:42Z</time>
      </trkpt>
      <trkpt lat="47.32436" lon="-1.93342">
        <ele>-5</ele>
        <time>2014-09-25T13:58:53Z</time>
      </trkpt>
      <trkpt lat="47.32443" lon="-1.93323">
        <ele>-3</ele>
        <time>2014-09-25T13:59:05Z</time>
      </trkpt>
      <trkpt lat="47.32457" lon="-1.93321">
        <ele>-2</ele>
        <time>2014-09-25T13:59:22Z</time>
      </trkpt>
      <trkpt lat="47.32471" lon="-1.93326">
        <ele>-2</ele>
        <time>2014-09-25T13:59:36Z</time>
      </trkpt>
      <trkpt lat="47.32485" lon="-1.93329">
        <ele>-2</ele>
        <time>2014-09-25T13:59:43Z</time>
      </trkpt>
      <trkpt lat="47.32498" lon="-1.93338">
        <ele>-1</ele>
        <time>2014-09-25T13:59:59Z</time>
      </trkpt>
      <trkpt lat="47.32513" lon="-1.93346">
        <ele>1</ele>
        <time>2014-09-25T14:00:14Z</time>
      </trkpt>
      <trkpt lat="47.32527" lon="-1.93348">
        <ele>-2</ele>
        <time>2014-09-25T14:00:25Z</time>
      </trkpt>
      <trkpt lat="47.32541" lon="-1.93351">
        <ele>-1</ele>
        <time>2014-09-25T14:00:33Z</time>
      </trkpt>
      <trkpt lat="47.32555" lon="-1.9335">
        <ele>2</ele>
        <time>2014-09-25T14:00:45Z</time>
      </trkpt>
      <trkpt lat="47.32569" lon="-1.93353">
        <ele>7</ele>
        <time>2014-09-25T14:00:55Z</time>
      </trkpt>
      <trkpt lat="47.32583" lon="-1.93357">
        <ele>5</ele>
        <time>2014-09-25T14:01:20Z</time>
      </trkpt>
      <trkpt lat="47.32597" lon="-1.93355">
        <ele>7</ele>
        <time>2014-09-25T14:01:27Z</time>
      </trkpt>
      <trkpt lat="47.32611" lon="-1.93353">
        <ele>6</ele>
        <time>2014-09-25T14:01:38Z</time>
      </trkpt>
      <trkpt lat="47.32625" lon="-1.93353">
        <ele>2</ele>
        <time>2014-09-25T14:01:46Z</time>
      </trkpt>
      <trkpt lat="47.32638" lon="-1.9335">
        <ele>2</ele>
        <time>2014-09-25T14:01:59Z</time>
      </trkpt>
      <trkpt lat="47.32652" lon="-1.93346">
        <ele>3</ele>
        <time>2014-09-25T14:02:09Z</time>
      </trkpt>
      <trkpt lat="47.32666" lon="-1.93346">
        <ele>4</ele>
        <time>2014-09-25T14:02:19Z</time>
      </trkpt>
      <trkpt lat="47.3268" lon="-1.93345">
        <ele>4</ele>
        <time>2014-09-25T14:02:27Z</time>
      </trkpt>
      <trkpt lat="47.32694" lon="-1.93342">
        <ele>4</ele>
        <time>2014-09-25T14:02:47Z</time>
      </trkpt>
      <trkpt lat="47.32708" lon="-1.93338">
        <ele>7</ele>
        <time>2014-09-25T14:03:18Z</time>
      </trkpt>
      <trkpt lat="47.32722" lon="-1.93335">
        <ele>6</ele>
        <time>2014-09-25T14:03:34Z</time>
      </trkpt>
      <trkpt lat="47.32737" lon="-1.93334">
        <ele>3</ele>
        <time>2014-09-25T14:03:46Z</time>
      </trkpt>
      <trkpt lat="47.32751" lon="-1.93336">
        <ele>3</ele>
        <time>2014-09-25T14:03:59Z</time>
      </trkpt>
      <trkpt lat="47.32765" lon="-1.93332">
        <ele>1</ele>
        <time>2014-09-25T14:04:12Z</time>
      </trkpt>
      <trkpt lat="47.3278" lon="-1.9333">
        <ele>1</ele>
        <time>2014-09-25T14:04:24Z</time>
      </trkpt>
      <trkpt lat="47.32794" lon="-1.93325">
        <ele>-1</ele>
        <time>2014-09-25T14:04:33Z</time>
      </trkpt>
      <trkpt lat="47.32808" lon="-1.93323">
        <ele>1</ele>
        <time>2014-09-25T14:04:40Z</time>
      </trkpt>
      <trkpt lat="47.32822" lon="-1.9332">
        <ele>-5</ele>
        <time>2014-09-25T14:04:53Z</time>
      </trkpt>
      <trkpt lat="47.32836" lon="-1.93319">
        <ele>-4</ele>
        <time>2014-09-25T14:05:05Z</time>
      </trkpt>
      <trkpt lat="47.32849" lon="-1.93317">
        <ele>-2</ele>
        <time>2014-09-25T14:05:15Z</time>
      </trkpt>
      <trkpt lat="47.32863" lon="-1.93315">
        <ele>-2</ele>
        <time>2014-09-25T14:05:26Z</time>
      </trkpt>
      <trkpt lat="47.32878" lon="-1.93315">
        <ele>-4</ele>
        <time>2014-09-25T14:05:38Z</time>
      </trkpt>
      <trkpt lat="47.32891" lon="-1.9332">
        <ele>-4</ele>
        <time>2014-09-25T14:05:50Z</time>
      </trkpt>
      <trkpt lat="47.32905" lon="-1.93321">
        <ele>-2</ele>
        <time>2014-09-25T14:05:59Z</time>
      </trkpt>
      <trkpt lat="47.32919" lon="-1.93327">
        <ele>2.8</ele>
        <time>2014-09-25T14:06:11Z</time>
      </trkpt>
      <trkpt lat="47.32931" lon="-1.93336">
        <ele>4</ele>
        <time>2014-09-25T14:06:21Z</time>
      </trkpt>
      <trkpt lat="47.32941" lon="-1.9335">
        <ele>-2</ele>
        <time>2014-09-25T14:06:50Z</time>
      </trkpt>
      <trkpt lat="47.32955" lon="-1.93348">
        <ele>2</ele>
        <time>2014-09-25T14:07:02Z</time>
      </trkpt>
      <trkpt lat="47.32965" lon="-1.93363">
        <ele>-2</ele>
        <time>2014-09-25T14:07:19Z</time>
      </trkpt>
      <trkpt lat="47.32974" lon="-1.9338">
        <ele>-2</ele>
        <time>2014-09-25T14:07:29Z</time>
      </trkpt>
      <trkpt lat="47.32981" lon="-1.93396">
        <ele>4</ele>
        <time>2014-09-25T14:07:38Z</time>
      </trkpt>
      <trkpt lat="47.32986" lon="-1.93417">
        <ele>4</ele>
        <time>2014-09-25T14:07:48Z</time>
      </trkpt>
      <trkpt lat="47.32994" lon="-1.93435">
        <ele>2</ele>
        <time>2014-09-25T14:07:58Z</time>
      </trkpt>
      <trkpt lat="47.33002" lon="-1.93453">
        <ele>-3</ele>
        <time>2014-09-25T14:08:15Z</time>
      </trkpt>
      <trkpt lat="47.3301" lon="-1.9347">
        <ele>-1</ele>
        <time>2014-09-25T14:08:28Z</time>
      </trkpt>
      <trkpt lat="47.33018" lon="-1.93487">
        <ele>3.3</ele>
        <time>2014-09-25T14:08:40Z</time>
      </trkpt>
      <trkpt lat="47.33033" lon="-1.9349">
        <ele>2</ele>
        <time>2014-09-25T14:08:52Z</time>
      </trkpt>
      <trkpt lat="47.33043" lon="-1.93475">
        <ele>2</ele>
        <time>2014-09-25T14:09:04Z</time>
      </trkpt>
      <trkpt lat="47.33055" lon="-1.93464">
        <ele>5</ele>
        <time>2014-09-25T14:09:16Z</time>
      </trkpt>
      <trkpt lat="47.33064" lon="-1.93448">
        <ele>3</ele>
        <time>2014-09-25T14:09:26Z</time>
      </trkpt>
      <trkpt lat="47.33074" lon="-1.93434">
        <ele>3</ele>
        <time>2014-09-25T14:09:38Z</time>
      </trkpt>
      <trkpt lat="47.33084" lon="-1.9342">
        <ele>2</ele>
        <time>2014-09-25T14:09:49Z</time>
      </trkpt>
      <trkpt lat="47.33095" lon="-1.93405">
        <ele>1</ele>
        <time>2014-09-25T14:10:02Z</time>
      </trkpt>
      <trkpt lat="47.33108" lon="-1.93395">
        <ele>1</ele>
        <time>2014-09-25T14:10:13Z</time>
      </trkpt>
      <trkpt lat="47.33119" lon="-1.93384">
        <ele>1</ele>
        <time>2014-09-25T14:10:25Z</time>
      </trkpt>
      <trkpt lat="47.33132" lon="-1.93373">
        <ele>-3</ele>
        <time>2014-09-25T14:10:37Z</time>
      </trkpt>
      <trkpt lat="47.33144" lon="-1.93363">
        <ele>-4</ele>
        <time>2014-09-25T14:10:48Z</time>
      </trkpt>
      <trkpt lat="47.33156" lon="-1.93352">
        <ele>-6</ele>
        <time>2014-09-25T14:10:58Z</time>
      </trkpt>
      <trkpt lat="47.33165" lon="-1.93337">
        <ele>-3</ele>
        <time>2014-09-25T14:11:07Z</time>
      </trkpt>
      <trkpt lat="47.33179" lon="-1.93332">
        <ele>2.6</ele>
        <time>2014-09-25T14:11:20Z</time>
      </trkpt>
      <trkpt lat="47.33192" lon="-1.93325">
        <ele>1</ele>
        <time>2014-09-25T14:11:30Z</time>
      </trkpt>
      <trkpt lat="47.33205" lon="-1.93317">
        <ele>2.4</ele>
        <time>2014-09-25T14:11:41Z</time>
      </trkpt>
      <trkpt lat="47.33217" lon="-1.93308">
        <ele>-1</ele>
        <time>2014-09-25T14:11:53Z</time>
      </trkpt>
      <trkpt lat="47.3323" lon="-1.93297">
        <ele>-3</ele>
        <time>2014-09-25T14:12:04Z</time>
      </trkpt>
      <trkpt lat="47.33242" lon="-1.93289">
        <ele>-4</ele>
        <time>2014-09-25T14:12:13Z</time>
      </trkpt>
      <trkpt lat="47.33256" lon="-1.93282">
        <ele>-2</ele>
        <time>2014-09-25T14:12:25Z</time>
      </trkpt>
      <trkpt lat="47.33268" lon="-1.93274">
        <ele>-4</ele>
        <time>2014-09-25T14:12:38Z</time>
      </trkpt>
      <trkpt lat="47.33282" lon="-1.93267">
        <ele>-3</ele>
        <time>2014-09-25T14:12:50Z</time>
      </trkpt>
      <trkpt lat="47.34038" lon="-1.92099">
        <ele>8</ele>
        <time>2014-09-26T07:37:48Z</time>
      </trkpt>
      <trkpt lat="47.34085" lon="-1.92151">
        <ele>8</ele>
        <time>2014-09-26T07:37:55Z</time>
      </trkpt>
      <trkpt lat="47.34045" lon="-1.92107">
        <ele>8</ele>
        <time>2014-09-26T07:38:02Z</time>
      </trkpt>
      <trkpt lat="47.34039" lon="-1.921">
        <ele>8</ele>
        <time>2014-09-26T07:38:32Z</time>
      </trkpt>
    </trkseg>
  </trk>
</gpx>